Flight Track Log - Related Links

Times and Time Zones

All times are in EDT time to prevent confusion due to time zone crossing. See the DAL38 flight status page for this flight to view local times or setup timezone preferences in your user account.

Time Position Orientation Groundspeed Altitude Reporting Facility
EDT Latitude Longitude Course Direction KTS MPH feet Rate Location/Type
Fri 05:52:39 PM 33.6400 -84.4200 North 2 2  Level FlightAware ADS-B
Fri 05:53:41 PM 33.6400 -84.4210 270° West 2 2 68 Level FlightAware ADS-B
Fri 05:56:00 PM 33.7099 -84.0602 73° East  Level FlightAware Approximate
Fri 05:57:00 PM 33.7805 -83.9272 54° Northeast  Level FlightAware Approximate
Fri 05:58:00 PM 33.8579 -83.7980 54° Northeast  Level FlightAware Approximate
Fri 05:59:00 PM 33.9423 -83.6756 53° Northeast  Level FlightAware Approximate
Fri 06:00:00 PM 34.0218 -83.5480 53° Northeast  Level FlightAware Approximate
Fri 06:00:59 PM 33.6380 -84.4210 180° South 12 14  Level FlightAware ADS-B
Fri 06:01:43 PM 33.6370 -84.4210 180° South 11 13 99 Level FlightAware ADS-B
Fri 06:02:52 PM 33.6360 -84.4210 180° South 26 30 104 Level FlightAware ADS-B
Fri 06:03:32 PM 33.6360 -84.4230 270° West 25 29 111 Level FlightAware ADS-B
Fri 06:04:00 PM 33.6380 -84.4230 360° North 25 29 116 Level FlightAware ADS-B
Fri 06:04:33 PM 33.6360 -84.4260 231° Southwest 22 25 119 Level FlightAware ADS-B
Fri 06:06:08 PM 33.6360 -84.4310 270° West 24 28 124 Level FlightAware ADS-B
Fri 06:06:59 PM 33.6360 -84.4330 270° West 30 35 139 Level FlightAware ADS-B
Fri 06:07:26 PM 33.6360 -84.4350 270° West 30 35 149 Level FlightAware ADS-B
Fri 06:08:11 PM 33.6360 -84.4370 270° West 14 16 154 Level FlightAware ADS-B
Fri 06:08:55 PM 33.6360 -84.4380 270° West 165 Level FlightAware ADS-B
Fri 06:09:50 PM 33.6360 -84.4390 270° West 20 23 177 Level FlightAware ADS-B
Fri 06:10:34 PM 33.6360 -84.4400 270° West 17 20 194 Level FlightAware ADS-B
Fri 06:12:42 PM 33.6360 -84.4430 270° West 10 12 211 Level FlightAware ADS-B
Fri 06:15:00 PM 33.8502 -84.1831 73° East  Level Estimated
Fri 06:16:00 PM 33.9431 -84.0696 54° Northeast  Level Estimated
Fri 06:17:00 PM 33.9027 -83.9178 108° East  Level FlightAware Approximate
Fri 06:18:00 PM 33.9955 -83.8042 53° Northeast  Level Estimated
Fri 06:18:18 PM 33.6350 -84.4390 53° Northeast 105 121  Level FlightAware ADS-B
Fri 06:18:42 PM 33.6350 -84.4180 90° East 175 201 2,250 Level FlightAware ADS-B
Fri 06:19:06 PM 33.6350 -84.3930 90° East 188 216 1,800 2,600 Climbing FlightAware ADS-B
Fri 06:19:42 PM 33.6350 -84.3530 90° East 222 255 2,600 1,154 Climbing FlightAware ADS-B
Fri 06:19:58 PM 33.6350 -84.3320 90° East 245 282 2,800 1,862 Climbing FlightAware ADS-B
Fri 06:20:40 PM 33.6340 -84.2730 91° East 259 298 4,400 2,400 Climbing FlightAware ADS-B
Fri 06:21:08 PM 33.6340 -84.2320 90° East 264 304 5,600 2,719 Climbing FlightAware ADS-B
Fri 06:21:44 PM 33.6340 -84.1790 90° East 267 307 7,300 2,625 Climbing FlightAware ADS-B
Fri 06:22:12 PM 33.6350 -84.1370 88° East 272 313 8,400 2,217 Climbing FlightAware ADS-B
Fri 06:22:30 PM 33.6360 -84.1110 87° East 278 320 9,000 2,000 Climbing FlightAware ADS-B
Fri 06:22:42 PM 33.6420 -84.0940 67° East 282 325 9,400 1,556 Climbing FlightAware ADS-B
Fri 06:23:24 PM 33.6810 -84.0420 48° Northeast 316 364 10,400 1,116 Climbing FlightAware ADS-B
Fri 06:24:08 PM 33.7280 -83.9820 47° Northeast 367 422 11,000 1,347 Climbing FlightAware ADS-B
Fri 06:25:02 PM 33.7940 -83.8970 47° Northeast 399 459 12,600 1,851 Climbing FlightAware ADS-B
Fri 06:25:42 PM 33.8420 -83.8350 47° Northeast 411 473 13,900 2,100 Climbing FlightAware ADS-B
Fri 06:26:42 PM 33.9220 -83.7290 48° Northeast 427 491 16,100 2,327 Climbing FlightAware ADS-B
Fri 06:27:20 PM 33.9700 -83.6570 51° Northeast 426 490 17,700 2,233 Climbing FlightAware ADS-B
Fri 06:28:08 PM 34.0290 -83.5640 53° Northeast 433 498 19,300 1,841 Climbing FlightAware ADS-B
Fri 06:28:48 PM 34.0780 -83.4860 53° Northeast 443 510 20,400 1,610 Climbing FlightAware ADS-B
Fri 06:29:30 PM 34.1300 -83.4030 53° Northeast 451 519 21,500 1,463 Climbing FlightAware ADS-B
Fri 06:30:10 PM 34.1810 -83.3210 53° Northeast 463 533 22,400 1,395 Climbing FlightAware ADS-B
Fri 06:30:56 PM 34.2410 -83.2270 52° Northeast 474 545 23,500 1,357 Climbing FlightAware ADS-B
Fri 06:31:34 PM 34.2900 -83.1480 53° Northeast 482 555 24,300 1,333 Climbing FlightAware ADS-B
Fri 06:31:59 PM 34.3264 -83.0906 52° Northeast 486 559 24,900 1,745 Climbing FlightAware ADS-B
Fri 06:32:29 PM 34.3672 -83.0251 53° Northeast 483 556 25,900 1,742 Climbing FlightAware ADS-B
Fri 06:33:01 PM 34.4080 -82.9590 53° Northeast 485 558 26,700 1,457 Climbing FlightAware ADS-B
Fri 06:33:39 PM 34.4590 -82.8780 53° Northeast 485 558 27,600 692 Climbing FlightAware ADS-B
Fri 06:34:19 PM 34.5050 -82.8040 53° Northeast 485 558 27,600 1,446 Level FlightAware ADS-B
Fri 06:35:02 PM 34.5700 -82.6980 53° Northeast 485 558 29,600 2,000 Climbing FlightAware ADS-B
Fri 06:35:40 PM 34.6160 -82.6240 53° Northeast 486 559 30,300 988 Climbing FlightAware ADS-B
Fri 06:36:27 PM 34.6850 -82.5110 53° Northeast 488 562 31,000 462 Climbing FlightAware ADS-B
Fri 06:37:11 PM 34.7469 -82.4112 53° Northeast 488 562 31,000  Level FlightAware ADS-B
Fri 06:37:47 PM 34.7945 -82.3333 53° Northeast 487 560 31,000  Level FlightAware ADS-B
Fri 06:38:27 PM 34.8430 -82.2540 53° Northeast 487 560 31,000  Level FlightAware ADS-B
Fri 06:39:16 PM 34.9136 -82.1377 53° Northeast 484 557 31,000  Level FlightAware ADS-B
Fri 06:39:46 PM 34.9539 -82.0719 53° Northeast 484 557 31,000  Level FlightAware ADS-B
Fri 06:40:16 PM 34.9940 -82.0055 54° Northeast 482 555 31,000  Level FlightAware ADS-B
Fri 06:40:50 PM 35.0379 -81.9315 54° Northeast 480 552 31,000  Level FlightAware ADS-B
Fri 06:41:20 PM 35.0751 -81.8635 56° Northeast 480 552 31,000  Level FlightAware ADS-B
Fri 06:42:06 PM 35.1300 -81.7608 57° Northeast 478 550 31,000  Level FlightAware ADS-B
Fri 06:42:38 PM 35.1684 -81.6889 57° Northeast 478 550 31,000  Level FlightAware ADS-B
Fri 06:43:08 PM 35.2045 -81.6206 57° Northeast 477 549 31,000  Level FlightAware ADS-B
Fri 06:43:38 PM 35.2408 -81.5524 57° Northeast 477 549 31,000  Level FlightAware ADS-B
Fri 06:44:10 PM 35.2790 -81.4790 57° Northeast 477 549 31,000  Level FlightAware ADS-B
Fri 06:44:27 PM 35.2998 -81.4407 56° Northeast 477 549 31,000  Level FlightAware ADS-B
Fri 06:44:58 PM 35.3367 -81.3708 57° Northeast 477 549 31,000  Level FlightAware ADS-B
Fri 06:45:40 PM 35.3863 -81.2764 57° Northeast 477 549 31,000  Level FlightAware ADS-B
Fri 06:46:10 PM 35.4226 -81.2073 57° Northeast 477 549 31,000  Level FlightAware ADS-B
Fri 06:46:43 PM 35.4320 -81.1890 58° Northeast 477 549 31,000  Level FlightAware ADS-B
Fri 06:46:50 PM 35.4703 -81.1159 57° Northeast 478 550 31,000  Level FlightAware ADS-B
Fri 06:48:02 PM 35.5540 -80.9550 57° Northeast 479 551 31,000  Level FlightAware ADS-B
Fri 06:48:43 PM 35.5960 -80.8750 57° Northeast 479 551 31,000  Level FlightAware ADS-B
Fri 06:49:26 PM 35.6540 -80.7620 58° Northeast 481 554 31,000  Level FlightAware ADS-B
Fri 06:50:12 PM 35.7110 -80.6530 57° Northeast 481 554 31,000  Level FlightAware ADS-B
Fri 06:50:52 PM 35.7570 -80.5630 58° Northeast 480 552 31,000  Level FlightAware ADS-B
Fri 06:51:37 PM 35.8040 -80.4720 57° Northeast 480 552 31,000  Level FlightAware ADS-B
Fri 06:52:29 PM 35.8640 -80.3540 58° Northeast 474 545 31,000  Level FlightAware ADS-B
Fri 06:53:17 PM 35.9110 -80.2600 58° Northeast 474 545 31,000  Level FlightAware ADS-B
Fri 06:54:10 PM 35.9840 -80.1180 58° Northeast 476 548 31,000  Level FlightAware ADS-B
Fri 06:54:48 PM 36.0280 -80.0300 58° Northeast 474 545 31,000  Level FlightAware ADS-B
Fri 06:55:26 PM 36.0660 -79.9550 58° Northeast 474 545 31,000  Level FlightAware ADS-B
Fri 06:56:17 PM 36.1370 -79.8340 54° Northeast 472 543 31,000  Level FlightAware ADS-B
Fri 06:56:57 PM 36.1910 -79.7370 55° Northeast 466 536 31,000  Level FlightAware ADS-B
Fri 06:57:37 PM 36.2430 -79.6460 55° Northeast 466 536 31,000  Level FlightAware ADS-B
Fri 06:58:18 PM 36.2920 -79.5590 55° Northeast 466 536 31,000  Level FlightAware ADS-B
Fri 06:59:17 PM 36.3670 -79.4240 55° Northeast 466 536 31,000  Level FlightAware ADS-B
Fri 06:59:57 PM 36.4180 -79.3350 55° Northeast 465 535 31,000  Level FlightAware ADS-B
Fri 07:00:37 PM 36.4670 -79.2460 56° Northeast 464 534 31,000  Level FlightAware ADS-B
Fri 07:01:34 PM 36.5290 -79.1340 55° Northeast 464 534 31,000  Level FlightAware ADS-B
Fri 07:02:18 PM 36.5800 -79.0420 55° Northeast 462 532 31,000  Level FlightAware ADS-B
Fri 07:02:56 PM 36.6280 -78.9550 55° Northeast 461 531 31,000  Level FlightAware ADS-B
Fri 07:03:39 PM 36.6890 -78.8460 55° Northeast 466 536 31,000  Level FlightAware ADS-B
Fri 07:04:25 PM 36.7400 -78.7550 55° Northeast 466 536 31,000  Level FlightAware ADS-B
Fri 07:05:02 PM 36.8040 -78.6700 47° Northeast 468 539 31,000  Level FlightAware ADS-B
Fri 07:05:53 PM 36.8850 -78.5780 42° Northeast 468 539 31,000  Level FlightAware ADS-B
Fri 07:06:33 PM 36.9500 -78.5050 42° Northeast 468 539 31,000  Level FlightAware ADS-B
Fri 07:07:09 PM 37.0080 -78.4390 42° Northeast 468 539 31,000  Level FlightAware ADS-B
Fri 07:07:57 PM 37.0840 -78.3530 42° Northeast 467 537 31,000  Level FlightAware ADS-B
Fri 07:08:41 PM 37.1550 -78.2730 42° Northeast 466 536 31,000  Level FlightAware ADS-B
Fri 07:09:33 PM 37.2350 -78.1800 43° Northeast 465 535 31,000  Level FlightAware ADS-B
Fri 07:11:48 PM 37.4480 -77.9310 43° Northeast 464 534 31,000  Level FlightAware ADS-B
Fri 07:12:27 PM 37.5120 -77.8570 43° Northeast 465 535 31,000  Level FlightAware ADS-B
Fri 07:13:13 PM 37.5850 -77.7720 43° Northeast 465 535 31,000  Level FlightAware ADS-B
Fri 07:13:41 PM 37.6290 -77.7190 44° Northeast 465 535 31,000  Level FlightAware ADS-B
Fri 07:14:23 PM 37.6950 -77.6410 43° Northeast 464 534 31,000  Level FlightAware ADS-B
Fri 07:15:03 PM 37.7570 -77.5680 43° Northeast 464 534 31,000  Level FlightAware ADS-B
Fri 07:16:23 PM 37.8820 -77.4200 43° Northeast 463 533 31,000  Level FlightAware ADS-B
Fri 07:16:59 PM 37.9390 -77.3520 43° Northeast 461 531 31,000  Level FlightAware ADS-B
Fri 07:17:45 PM 38.0090 -77.2680 43° Northeast 459 528 31,000  Level FlightAware ADS-B
Fri 07:18:27 PM 38.0750 -77.1900 43° Northeast 457 526 31,000  Level FlightAware ADS-B
Fri 07:19:03 PM 38.1300 -77.1240 43° Northeast 456 525 31,000  Level FlightAware ADS-B
Fri 07:19:54 PM 38.2070 -77.0308 44° Northeast 456 525 31,000  Level FlightAware ADS-B
Fri 07:20:25 PM 38.2545 -76.9736 43° Northeast 455 524 31,000  Level FlightAware ADS-B
Fri 07:21:10 PM 38.3229 -76.8910 43° Northeast 454 522 31,000  Level FlightAware ADS-B
Fri 07:21:49 PM 38.3828 -76.8183 44° Northeast 455 524 31,000  Level FlightAware ADS-B
Fri 07:22:20 PM 38.4308 -76.7601 44° Northeast 454 522 31,000  Level FlightAware ADS-B
Fri 07:22:56 PM 38.4847 -76.6945 44° Northeast 455 524 31,000  Level FlightAware ADS-B
Fri 07:23:29 PM 38.5359 -76.6322 44° Northeast 457 526 31,000  Level FlightAware ADS-B
Fri 07:24:05 PM 38.5905 -76.5656 44° Northeast 458 527 31,000  Level FlightAware ADS-B
Fri 07:24:38 PM 38.6415 -76.5033 44° Northeast 458 527 31,000  Level FlightAware ADS-B
Fri 07:25:09 PM 38.6884 -76.4457 44° Northeast 459 528 31,000  Level FlightAware ADS-B
Fri 07:25:40 PM 38.7361 -76.3874 44° Northeast 460 529 31,000  Level FlightAware ADS-B
Fri 07:26:11 PM 38.7841 -76.3283 44° Northeast 461 531 31,000  Level FlightAware ADS-B
Fri 07:26:41 PM 38.8304 -76.2714 44° Northeast 463 533 31,000  Level FlightAware ADS-B
Fri 07:27:14 PM 38.8804 -76.2096 44° Northeast 464 534 31,000  Level FlightAware ADS-B
Fri 07:27:45 PM 38.9287 -76.1500 44° Northeast 465 535 31,000  Level FlightAware ADS-B
Fri 07:28:17 PM 38.9776 -76.0895 44° Northeast 465 535 31,000  Level FlightAware ADS-B
Fri 07:28:50 PM 39.0287 -76.0259 44° Northeast 465 535 31,000  Level FlightAware ADS-B
Fri 07:29:21 PM 39.0766 -75.9663 44° Northeast 465 535 31,000  Level FlightAware ADS-B
Fri 07:29:54 PM 39.1274 -75.9031 44° Northeast 465 535 31,000  Level FlightAware ADS-B
Fri 07:30:24 PM 39.1743 -75.8446 44° Northeast 465 535 31,000  Level FlightAware ADS-B
Fri 07:30:57 PM 39.2243 -75.7821 44° Northeast 464 534 31,000  Level FlightAware ADS-B
Fri 07:31:28 PM 39.2722 -75.7220 44° Northeast 463 533 31,000  Level FlightAware ADS-B
Fri 07:31:59 PM 39.3206 -75.6615 44° Northeast 463 533 31,000  Level FlightAware ADS-B
Fri 07:32:32 PM 39.3700 -75.5991 44° Northeast 464 534 31,000  Level FlightAware ADS-B
Fri 07:33:08 PM 39.4258 -75.5291 44° Northeast 463 533 31,000  Level FlightAware ADS-B
Fri 07:33:42 PM 39.4790 -75.4619 44° Northeast 464 534 31,000  Level FlightAware ADS-B
Fri 07:34:13 PM 39.5255 -75.4030 44° Northeast 465 535 31,000  Level FlightAware ADS-B
Fri 07:34:44 PM 39.5725 -75.3433 44° Northeast 465 535 31,000  Level FlightAware ADS-B
Fri 07:35:14 PM 39.6194 -75.2838 44° Northeast 465 535 31,000  Level FlightAware ADS-B
Fri 07:35:50 PM 39.6742 -75.2142 44° Northeast 465 535 31,000  Level FlightAware ADS-B
Fri 07:36:20 PM 39.7212 -75.1544 44° Northeast 465 535 31,000  Level FlightAware ADS-B
Fri 07:37:05 PM 39.7899 -75.0666 44° Northeast 467 537 31,000  Level FlightAware ADS-B
Fri 07:37:41 PM 39.8458 -74.9950 45° Northeast 468 539 31,000  Level FlightAware ADS-B
Fri 07:38:12 PM 39.8925 -74.9351 45° Northeast 468 539 31,000  Level FlightAware ADS-B
Fri 07:38:45 PM 39.9440 -74.8683 45° Northeast 469 540 31,000  Level FlightAware ADS-B
Fri 07:39:16 PM 39.9888 -74.8034 48° Northeast 471 542 31,000  Level FlightAware ADS-B
Fri 07:39:46 PM 40.0321 -74.7399 48° Northeast 471 542 31,000  Level FlightAware ADS-B
Fri 07:40:19 PM 40.0802 -74.6705 48° Northeast 472 543 31,000  Level FlightAware ADS-B
Fri 07:40:55 PM 40.1326 -74.5954 48° Northeast 471 542 31,000  Level FlightAware ADS-B
Fri 07:41:22 PM 40.1723 -74.5384 48° Northeast 471 542 31,000  Level FlightAware ADS-B
Fri 07:41:33 PM 40.1869 -74.5141 52° Northeast 472 543 31,000  Level FlightAware ADS-B
Fri 07:41:54 PM 40.2102 -74.4603 60° Northeast 474 545 31,000  Level FlightAware ADS-B
Fri 07:42:00 PM 40.2149 -74.4468 65° Northeast 474 545 31,000  Level FlightAware ADS-B
Fri 07:42:39 PM 40.2443 -74.3398 70° East 475 547 31,000  Level FlightAware ADS-B
Fri 07:43:12 PM 40.2680 -74.2502 71° East 474 545 31,000  Level FlightAware ADS-B
Fri 07:43:45 PM 40.2910 -74.1622 71° East 476 548 31,000  Level FlightAware ADS-B
Fri 07:44:16 PM 40.3131 -74.0779 71° East 476 548 31,000  Level FlightAware ADS-B
Fri 07:44:46 PM 40.3347 -73.9949 71° East 477 549 31,000  Level FlightAware ADS-B
Fri 07:45:17 PM 40.3568 -73.9101 71° East 478 550 31,000  Level FlightAware ADS-B
Fri 07:45:50 PM 40.3802 -73.8199 71° East 477 549 31,000  Level FlightAware ADS-B
Fri 07:46:31 PM 40.4090 -73.7090 71° East 477 549 31,000  Level FlightAware ADS-B
Fri 07:46:41 PM 40.4164 -73.6802 71° East 478 550 31,000  Level FlightAware ADS-B
Fri 07:47:12 PM 40.4378 -73.5975 71° East 478 550 31,000  Level FlightAware ADS-B
Fri 07:47:42 PM 40.4592 -73.5143 71° East 478 550 31,000  Level FlightAware ADS-B
Fri 07:48:13 PM 40.4808 -73.4297 71° East 478 550 31,000  Level FlightAware ADS-B
Fri 07:48:45 PM 40.5031 -73.3423 71° East 477 549 31,000  Level FlightAware ADS-B
Fri 07:49:19 PM 40.5267 -73.2492 72° East 476 548 31,000  Level FlightAware ADS-B
Fri 07:49:56 PM 40.5525 -73.1477 71° East 478 550 31,000  Level FlightAware ADS-B
Fri 07:50:26 PM 40.5734 -73.0646 72° East 477 549 31,000  Level FlightAware ADS-B
Fri 07:50:57 PM 40.5951 -72.9792 71° East 479 551 31,000  Level FlightAware ADS-B
Fri 07:51:27 PM 40.6160 -72.8955 72° East 479 551 31,000  Level FlightAware ADS-B
Fri 07:52:06 PM 40.6430 -72.7871 72° East 480 552 31,000  Level FlightAware ADS-B
Fri 07:52:38 PM 40.6651 -72.6986 72° East 480 552 31,000  Level FlightAware ADS-B
Fri 07:53:10 PM 40.6867 -72.6108 72° East 480 552 31,000  Level FlightAware ADS-B
Fri 07:53:44 PM 40.7102 -72.5161 72° East 482 555 31,000  Level FlightAware ADS-B
Fri 07:54:17 PM 40.7326 -72.4247 72° East 482 555 31,000  Level FlightAware ADS-B
Fri 07:54:51 PM 40.7561 -72.3291 72° East 482 555 31,000  Level FlightAware ADS-B
Fri 07:55:32 PM 40.7840 -72.2153 72° East 482 555 31,000  Level FlightAware ADS-B
Fri 07:56:02 PM 40.8047 -72.1297 72° East 484 557 31,000  Level FlightAware ADS-B
Fri 07:56:36 PM 40.8272 -72.0363 72° East 484 557 31,000  Level FlightAware ADS-B
Fri 07:57:06 PM 40.8476 -71.9516 72° East 482 555 31,000  Level FlightAware ADS-B
Fri 07:58:05 PM 40.8880 -71.7890 72° East 481 554 31,000  Level FlightAware ADS-B
Fri 07:58:43 PM 40.9188 -71.6836 69° East 482 555 31,000  Level FlightAware ADS-B
Fri 07:59:29 PM 40.9440 -71.6000 68° East 481 554 31,000  Level FlightAware ADS-B
Fri 08:00:07 PM 40.9710 -71.5110 68° East 481 554 31,000  Level FlightAware ADS-B
Fri 08:00:56 PM 41.0060 -71.3970 68° East 481 554 31,000  Level FlightAware ADS-B
Fri 08:01:36 PM 41.0600 -71.2140 69° East 482 555 31,000  Level FlightAware ADS-B
Fri 08:02:21 PM 41.0970 -71.0900 68° East 482 555 31,000  Level FlightAware ADS-B
Fri 08:03:11 PM 41.1370 -70.9530 69° East 481 554 31,000  Level FlightAware ADS-B
Fri 08:03:57 PM 41.1720 -70.8350 68° East 481 554 31,000  Level FlightAware ADS-B
Fri 08:04:46 PM 41.2140 -70.6910 69° East 479 551 31,000  Level FlightAware ADS-B
Fri 08:05:29 PM 41.2440 -70.5880 69° East 479 551 31,000  Level FlightAware ADS-B
Fri 08:06:11 PM 41.2820 -70.4560 69° East 479 551 31,000  Level FlightAware ADS-B
Fri 08:06:56 PM 41.3130 -70.3490 69° East 479 551 31,000  Level FlightAware ADS-B
Fri 08:07:45 PM 41.3460 -70.2350 69° East 479 551 31,000  Level FlightAware ADS-B
Fri 08:08:21 PM 41.3700 -70.1500 69° East 479 551 31,000  Level FlightAware ADS-B
Fri 08:09:09 PM 41.4030 -70.0380 69° East 479 551 31,000 740 Level FlightAware ADS-B
Fri 08:09:46 PM 41.4500 -69.8690 70° East 33,000 1,075 Climbing FlightAware ADS-B
Fri 08:10:55 PM 41.4831 -69.6800 70° East 468 539 32,900  Descending Boston Center
Fri 08:11:55 PM 41.5375 -69.5225 65° Northeast 463 533 33,000 50 Climbing Boston Center
Fri 08:12:54 PM 41.5769 -69.3597 72° East 463 533 33,000 156 Level Boston Center
Fri 08:18:20 PM 41.8290 -68.4850 72° East 468 539 34,000 158 Climbing FlightAware ADS-B
Fri 08:19:14 PM 41.8680 -68.3380 70° East 471 542 34,000  Level FlightAware ADS-B
Fri 08:19:59 PM 41.9020 -68.2060 71° East 472 543 34,000  Level FlightAware ADS-B
Fri 08:20:54 PM 41.9420 -68.0560 70° East 473 544 34,000  Level FlightAware ADS-B
Fri 08:21:36 PM 41.9670 -67.9570 71° East 474 545 34,000  Level FlightAware ADS-B
Fri 08:22:12 PM 41.9890 -67.8710 71° East 474 545 34,000  Level FlightAware ADS-B
Fri 08:22:59 PM 42.0290 -67.7170 71° East 474 545 34,000  Level FlightAware ADS-B
Fri 08:23:43 PM 42.0530 -67.6220 71° East 474 545 34,000  Level FlightAware ADS-B
Fri 08:24:20 PM 42.0760 -67.5340 71° East 474 545 34,000  Level FlightAware ADS-B
Fri 08:25:05 PM 42.1030 -67.4270 71° East 474 545 34,000  Level FlightAware ADS-B
Fri 08:26:18 PM 42.1470 -67.2540 71° East 474 545 34,000  Level FlightAware ADS-B
Fri 08:26:57 PM 42.1710 -67.1610 71° East 474 545 34,000  Level FlightAware ADS-B
Fri 08:27:58 PM 42.2080 -67.0160 71° East 474 545 34,000  Level FlightAware ADS-B
Fri 08:28:33 PM 42.2290 -66.9330 71° East 474 545 34,000  Level FlightAware ADS-B
Fri 08:29:36 PM 42.2670 -66.7830 71° East 474 545 34,000  Level FlightAware ADS-B
Fri 08:30:16 PM 42.2920 -66.6870 71° East 474 545 34,000  Level FlightAware ADS-B
Fri 08:31:39 PM 42.3420 -66.4900 71° East 474 545 34,000  Level FlightAware ADS-B
Fri 08:32:06 PM 42.3580 -66.4250 72° East 474 545 34,000  Level FlightAware ADS-B
Fri 08:32:43 PM 42.3810 -66.3370 70° East 474 545 34,000  Level FlightAware ADS-B
Fri 08:33:45 PM 42.5000 -65.9333 70° East 470 541 34,000  Level Moncton Center
Fri 08:34:45 PM 42.5500 -65.7500 70° East 480 552 34,000  Level Moncton Center
Fri 08:36:00 PM 42.6169 -65.5280 68° East  Level FlightAware Approximate
Fri 08:36:45 PM 42.6667 -65.4167 68° East 480 552 34,000  Level Moncton Center
Fri 08:37:45 PM 42.7167 -65.2667 66° East 480 552 34,000  Level Moncton Center
Fri 08:43:00 PM 42.9850 -64.3880 66° East 34,000  Level FlightAware ADS-B
Fri 08:43:45 PM 43.0000 -64.2333 66° East 480 552 34,000  Level Moncton Center
Fri 08:44:45 PM 43.0500 -64.0500 69° East 480 552 34,000  Level Moncton Center
Fri 08:45:45 PM 43.1000 -63.9000 65° Northeast 480 552 34,000  Level Moncton Center
Fri 08:46:45 PM 43.1500 -63.7333 68° East 480 552 34,000  Level Moncton Center
Fri 08:47:45 PM 43.2000 -63.5500 69° East 480 552 34,000  Level Moncton Center
Fri 08:48:45 PM 43.2500 -63.3833 68° East 480 552 34,000  Level Moncton Center
Fri 08:49:45 PM 43.2833 -63.2000 76° East 480 552 34,000  Level Moncton Center
Fri 08:50:45 PM 43.3333 -63.0167 69° East 480 552 34,000  Level Moncton Center
Fri 08:51:45 PM 43.3667 -62.8500 75° East 480 552 34,000  Level Moncton Center
Fri 08:52:45 PM 43.4167 -62.7000 65° Northeast 480 552 34,000  Level Moncton Center
Fri 08:53:21 PM 43.4500 -62.5833 68° East 490 564 34,000  Level Gander Center
Fri 08:54:21 PM 43.4833 -62.4000 76° East 500 575 34,000  Level Gander Center
Fri 08:55:21 PM 43.5333 -62.2167 69° East 490 564 34,000  Level Gander Center
Fri 08:56:45 PM 43.6167 -61.9667 65° Northeast 490 564 34,000  Level Moncton Center
Fri 08:57:21 PM 43.6500 -61.8833 61° Northeast 500 575 34,000  Level Gander Center
Fri 08:58:21 PM 43.6833 -61.7000 76° East 490 564 34,000  Level Gander Center
Fri 08:59:21 PM 43.7333 -61.5167 69° East 490 564 34,000  Level Gander Center
Fri 09:00:21 PM 43.7667 -61.3500 74° East 490 564 34,000  Level Gander Center
Fri 09:01:21 PM 43.8167 -61.1667 69° East 480 552 34,000  Level Gander Center
Fri 09:02:21 PM 43.8667 -60.9833 69° East 480 552 34,000 -143 Level Gander Center
Fri 09:08:20 PM 44.1340 -59.9350 69° East 504 580 33,000 -143 Descending FlightAware ADS-B
Fri 09:09:20 PM 44.1750 -59.7660 71° East 504 580 33,000  Level FlightAware ADS-B
Fri 09:09:57 PM 44.1990 -59.6690 71° East 504 580 33,000  Level FlightAware ADS-B
Fri 09:10:35 PM 44.2230 -59.5700 71° East 504 580 33,000  Level FlightAware ADS-B
Fri 09:11:28 PM 44.2570 -59.4310 71° East 504 580 33,000  Level FlightAware ADS-B
Fri 09:12:08 PM 44.2830 -59.3260 71° East 504 580 33,000  Level FlightAware ADS-B
Fri 09:12:50 PM 44.3290 -59.0930 74° East 509 586 33,000  Level FlightAware ADS-B
Fri 09:13:28 PM 44.3560 -58.9750 72° East 508 585 33,000  Level FlightAware ADS-B
Fri 09:14:14 PM 44.3880 -58.8310 73° East 505 581 33,000  Level FlightAware ADS-B
Fri 09:14:56 PM 44.4170 -58.7010 73° East 504 580 33,000  Level FlightAware ADS-B
Fri 09:15:32 PM 44.4420 -58.5900 72° East 505 581 33,000  Level FlightAware ADS-B
Fri 09:16:18 PM 44.4740 -58.4460 73° East 505 581 33,000  Level FlightAware ADS-B
Fri 09:17:02 PM 44.5040 -58.3080 73° East 504 580 33,000  Level FlightAware ADS-B
Fri 09:17:26 PM 44.5200 -58.2350 73° East 504 580 33,000  Level FlightAware ADS-B
Fri 09:18:13 PM 44.5510 -58.0920 73° East 505 581 33,000  Level FlightAware ADS-B
Fri 09:18:54 PM 44.5800 -57.9590 73° East 506 582 33,000  Level FlightAware ADS-B
Fri 09:19:36 PM 44.6090 -57.8260 73° East 508 585 33,000  Level FlightAware ADS-B
Fri 09:20:28 PM 44.6430 -57.6640 74° East 509 586 33,000  Level FlightAware ADS-B
Fri 09:21:07 PM 44.6660 -57.5590 73° East 509 586 33,000  Level FlightAware ADS-B
Fri 09:21:51 PM 44.6950 -57.4180 74° East 511 588 33,000  Level FlightAware ADS-B
Fri 09:22:37 PM 44.7300 -57.2530 73° East 514 592 33,000  Level FlightAware ADS-B
Fri 09:23:15 PM 44.7520 -57.1500 73° East 514 592 33,000  Level FlightAware ADS-B
Fri 09:24:55 PM 44.8210 -56.8080 74° East 520 598 33,000  Level FlightAware ADS-B
Fri 09:25:41 PM 44.8520 -56.6550 74° East 520 598 33,000  Level FlightAware ADS-B
Fri 09:26:19 PM 44.8770 -56.5340 74° East 522 601 33,000  Level FlightAware ADS-B
Fri 09:27:05 PM 44.9030 -56.4040 74° East 522 601 33,000  Level FlightAware ADS-B
Fri 09:27:41 PM 44.9230 -56.3040 74° East 522 601 33,000  Level FlightAware ADS-B
Fri 09:28:28 PM 44.9500 -56.1730 74° East 522 601 33,000  Level FlightAware ADS-B
Fri 09:29:04 PM 44.9700 -56.0720 74° East 522 601 33,000  Level FlightAware ADS-B
Fri 09:29:52 PM 44.9970 -55.9380 74° East 522 601 33,000  Level FlightAware ADS-B
Fri 09:30:29 PM 45.0180 -55.8350 74° East 522 601 33,000  Level FlightAware ADS-B
Fri 09:31:17 PM 45.0450 -55.7010 74° East 522 601 33,000  Level FlightAware ADS-B
Fri 09:31:56 PM 45.0670 -55.5920 74° East 522 601 33,000  Level FlightAware ADS-B
Fri 09:32:31 PM 45.0870 -55.4940 74° East 522 601 33,000  Level FlightAware ADS-B
Fri 09:33:19 PM 45.1140 -55.3600 74° East 522 601 33,000  Level FlightAware ADS-B
Fri 09:33:55 PM 45.1350 -55.2590 74° East 522 601 33,000  Level FlightAware ADS-B
Fri 09:34:43 PM 45.1620 -55.1250 74° East 522 601 33,000  Level FlightAware ADS-B
Fri 09:35:42 PM 45.1950 -54.9600 74° East 522 601 33,000  Level FlightAware ADS-B
Fri 09:36:19 PM 45.2160 -54.8560 74° East 522 601 33,000  Level FlightAware ADS-B
Fri 09:37:29 PM 45.3200 -54.2660 76° East 550 633 33,000  Level FlightAware ADS-B
Fri 09:38:18 PM 45.3480 -54.1200 75° East 550 633 33,000  Level FlightAware ADS-B
Fri 09:38:54 PM 45.3680 -54.0130 75° East 550 633 33,000  Level FlightAware ADS-B
Fri 09:39:31 PM 45.3880 -53.9030 75° East 550 633 33,000  Level FlightAware ADS-B
Fri 09:40:19 PM 45.4150 -53.7610 75° East 550 633 33,000  Level FlightAware ADS-B
Fri 09:40:55 PM 45.4350 -53.6530 75° East 550 633 33,000  Level FlightAware ADS-B
Fri 09:41:43 PM 45.4620 -53.5100 75° East 550 633 33,000  Level FlightAware ADS-B
Fri 09:42:20 PM 45.4830 -53.4000 75° East 550 633 33,000  Level FlightAware ADS-B
Fri 09:43:06 PM 45.5090 -53.2630 75° East 550 633 33,000  Level FlightAware ADS-B
Fri 09:43:53 PM 45.5350 -53.1230 75° East 550 633 33,000  Level FlightAware ADS-B
Fri 09:44:29 PM 45.5550 -53.0160 75° East 550 633 33,000  Level FlightAware ADS-B
Fri 09:45:18 PM 45.5830 -52.8690 75° East 550 633 33,000  Level FlightAware ADS-B
Fri 09:45:56 PM 45.6040 -52.7560 75° East 550 633 33,000  Level FlightAware ADS-B
Fri 09:47:09 PM 45.6450 -52.5380 75° East 550 633 33,000  Level FlightAware ADS-B
Fri 09:47:40 PM 45.6500 -52.0833 75° East 540 621 33,000  Level Gander Center
Fri 09:48:21 PM 45.6833 -51.9333 72° East 540 621 33,000  Level Gander Center
Fri 09:49:21 PM 45.7167 -51.7333 77° East 540 621 33,000  Level Gander Center
Fri 09:50:21 PM 45.7500 -51.5333 76° East 530 610 33,000  Level Gander Center
Fri 09:51:21 PM 45.7667 -51.3167 84° East 530 610 33,000  Level Gander Center
Fri 09:52:21 PM 45.8000 -51.1167 76° East 530 610 33,000  Level Gander Center
Fri 09:53:21 PM 45.8333 -50.9000 77° East 540 621 33,000  Level Gander Center
Fri 09:54:21 PM 45.8667 -50.7000 76° East 530 610 33,000  Level Gander Center
Fri 09:55:21 PM 45.9000 -50.5000 76° East 540 621 33,000  Level Gander Center
Fri 09:56:21 PM 45.9333 -50.3000 76° East 530 610 33,000  Level Gander Center
Fri 09:57:21 PM 45.9667 -50.0667 78° East 530 610 33,000  Level Gander Center
Fri 09:58:21 PM 46.0000 -49.8667 76° East 530 610 33,000  Level Gander Center
Fri 09:59:21 PM 46.0667 -49.6667 64° Northeast 540 621 33,000  Level Gander Center
Fri 10:00:21 PM 46.1333 -49.4833 62° Northeast 540 621 33,000  Level Gander Center
Fri 10:01:21 PM 46.1833 -49.3000 68° East 540 621 33,000  Level Gander Center
Fri 10:02:21 PM 46.2500 -49.1167 62° Northeast 540 621 33,000  Level Gander Center
Fri 10:03:21 PM 46.3333 -48.9167 59° Northeast 540 621 33,000  Level Gander Center
Fri 10:04:21 PM 46.4000 -48.7167 64° Northeast 540 621 33,000  Level Gander Center
Fri 10:05:21 PM 46.4500 -48.5333 68° East 530 610 33,000  Level Gander Center
Fri 10:06:21 PM 46.5333 -48.3333 59° Northeast 530 610 33,000  Level Gander Center
Fri 10:07:21 PM 46.6000 -48.1500 62° Northeast 520 598 33,000  Level Gander Center
Fri 10:08:21 PM 46.6500 -47.9667 68° East 530 610 33,000  Level Gander Center
Fri 10:09:21 PM 46.7167 -47.7667 64° Northeast 520 598 33,000  Level Gander Center
Fri 10:10:21 PM 46.7833 -47.5833 62° Northeast 530 610 33,000  Level Gander Center
Fri 10:11:21 PM 46.8333 -47.3667 71° East 520 598 33,000  Level Gander Center
Fri 10:12:21 PM 46.9167 -47.1833 56° Northeast 540 621 33,000  Level Gander Center
Fri 10:14:00 PM 46.9986 -46.9367 64° Northeast  Level FlightAware Approximate
Fri 10:21:00 PM 47.4202 -45.6296 64° Northeast  Level FlightAware Approximate
Fri 10:22:00 PM 47.4793 -45.4412 65° Northeast  Level FlightAware Approximate
Fri 10:23:00 PM 47.5379 -45.2523 65° Northeast  Level FlightAware Approximate
Fri 10:24:00 PM 47.5963 -45.0631 65° Northeast  Level FlightAware Approximate
Fri 10:25:00 PM 47.6544 -44.8734 65° Northeast  Level FlightAware Approximate
Fri 10:26:00 PM 47.7122 -44.6833 66° East  Level FlightAware Approximate
Fri 10:27:00 PM 47.7696 -44.4927 66° East  Level FlightAware Approximate
Fri 10:28:00 PM 47.8268 -44.3018 66° East  Level FlightAware Approximate
Fri 10:29:00 PM 47.8836 -44.1104 66° East  Level FlightAware Approximate
Fri 10:30:00 PM 47.9400 -43.9186 66° East  Level FlightAware Approximate
Fri 10:31:00 PM 47.9962 -43.7264 66° East  Level FlightAware Approximate
Fri 10:32:00 PM 48.0521 -43.5338 66° East  Level FlightAware Approximate
Fri 10:33:00 PM 48.1076 -43.3408 67° East  Level FlightAware Approximate
Fri 10:34:00 PM 48.1628 -43.1473 67° East  Level FlightAware Approximate
Fri 10:35:00 PM 48.2177 -42.9534 67° East  Level FlightAware Approximate
Fri 10:36:00 PM 48.2723 -42.7591 67° East  Level FlightAware Approximate
Fri 10:37:00 PM 48.3265 -42.5644 67° East  Level FlightAware Approximate
Fri 10:38:00 PM 48.3804 -42.3693 67° East  Level FlightAware Approximate
Fri 10:39:00 PM 48.4340 -42.1738 68° East  Level FlightAware Approximate
Fri 10:40:00 PM 48.4872 -41.9778 68° East  Level FlightAware Approximate
Fri 10:41:00 PM 48.5401 -41.7815 68° East  Level FlightAware Approximate
Fri 10:42:00 PM 48.5927 -41.5847 68° East  Level FlightAware Approximate
Fri 10:43:00 PM 48.6449 -41.3876 68° East  Level FlightAware Approximate
Fri 10:44:00 PM 48.6968 -41.1900 68° East  Level FlightAware Approximate
Fri 10:45:00 PM 48.7483 -40.9920 68° East  Level FlightAware Approximate
Fri 10:46:00 PM 48.7996 -40.7936 69° East  Level FlightAware Approximate
Fri 10:47:00 PM 48.8504 -40.5948 69° East  Level FlightAware Approximate
Fri 10:48:00 PM 48.9010 -40.3956 69° East  Level FlightAware Approximate
Fri 10:49:00 PM 48.9511 -40.1960 69° East  Level FlightAware Approximate
Fri 10:50:00 PM 49.0010 -39.9961 69° East  Level FlightAware Approximate
Fri 10:51:00 PM 49.0511 -39.7960 69° East  Level FlightAware Approximate
Fri 10:52:00 PM 49.1009 -39.5956 69° East  Level FlightAware Approximate
Fri 10:53:00 PM 49.1504 -39.3948 69° East  Level FlightAware Approximate
Fri 10:54:00 PM 49.1995 -39.1935 69° East  Level FlightAware Approximate
Fri 10:55:00 PM 49.2482 -38.9919 70° East  Level FlightAware Approximate
Fri 10:56:00 PM 49.2966 -38.7899 70° East  Level FlightAware Approximate
Fri 10:57:00 PM 49.3447 -38.5875 70° East  Level FlightAware Approximate
Fri 10:58:00 PM 49.3924 -38.3847 70° East  Level FlightAware Approximate
Fri 10:59:00 PM 49.4397 -38.1814 70° East  Level FlightAware Approximate
Fri 11:00:00 PM 49.4867 -37.9779 70° East  Level FlightAware Approximate
Fri 11:01:00 PM 49.5334 -37.7739 71° East  Level FlightAware Approximate
Fri 11:02:00 PM 49.5796 -37.5695 71° East  Level FlightAware Approximate
Fri 11:03:00 PM 49.6255 -37.3647 71° East  Level FlightAware Approximate
Fri 11:04:00 PM 49.6711 -37.1596 71° East  Level FlightAware Approximate
Fri 11:05:00 PM 49.7163 -36.9540 71° East  Level FlightAware Approximate
Fri 11:06:00 PM 49.7611 -36.7481 71° East  Level FlightAware Approximate
Fri 11:07:00 PM 49.8055 -36.5419 71° East  Level FlightAware Approximate
Fri 11:08:00 PM 49.8496 -36.3352 72° East  Level FlightAware Approximate
Fri 11:09:00 PM 49.8935 -36.1282 72° East  Level FlightAware Approximate
Fri 11:10:00 PM 49.9369 -35.9209 72° East  Level FlightAware Approximate
Fri 11:11:00 PM 49.9800 -35.7132 72° East  Level FlightAware Approximate
Fri 11:12:00 PM 50.0228 -35.5051 72° East  Level FlightAware Approximate
Fri 11:13:00 PM 50.0651 -35.2966 72° East  Level FlightAware Approximate
Fri 11:14:00 PM 50.1071 -35.0878 73° East  Level FlightAware Approximate
Fri 11:15:00 PM 50.1488 -34.8786 73° East  Level FlightAware Approximate
Fri 11:16:00 PM 50.1900 -34.6690 73° East  Level FlightAware Approximate
Fri 11:17:00 PM 50.2309 -34.4591 73° East  Level FlightAware Approximate
Fri 11:18:00 PM 50.2713 -34.2488 73° East  Level FlightAware Approximate
Fri 11:19:00 PM 50.3114 -34.0382 73° East  Level FlightAware Approximate
Fri 11:20:00 PM 50.3511 -33.8272 74° East  Level FlightAware Approximate
Fri 11:21:00 PM 50.3885 -33.6150 74° East  Level FlightAware Approximate
Fri 11:22:00 PM 50.4255 -33.4024 75° East  Level FlightAware Approximate
Fri 11:23:00 PM 50.4621 -33.1895 75° East  Level FlightAware Approximate
Fri 11:24:00 PM 50.4983 -32.9763 75° East  Level FlightAware Approximate
Fri 11:25:00 PM 50.5341 -32.7628 75° East  Level FlightAware Approximate
Fri 11:26:00 PM 50.5699 -32.5491 74° East  Level FlightAware Approximate
Fri 11:27:00 PM 50.6082 -32.3363 74° East  Level FlightAware Approximate
Fri 11:28:00 PM 50.6461 -32.1232 74° East  Level FlightAware Approximate
Fri 11:29:00 PM 50.6837 -31.9098 74° East  Level FlightAware Approximate
Fri 11:30:00 PM 50.7209 -31.6960 75° East  Level FlightAware Approximate
Fri 11:31:00 PM 50.7577 -31.4818 75° East  Level FlightAware Approximate
Fri 11:32:00 PM 50.7941 -31.2674 75° East  Level FlightAware Approximate
Fri 11:33:00 PM 50.8301 -31.0526 75° East  Level FlightAware Approximate
Fri 11:34:00 PM 50.8657 -30.8374 75° East  Level FlightAware Approximate
Fri 11:35:00 PM 50.9009 -30.6220 75° East  Level FlightAware Approximate
Fri 11:36:00 PM 50.9357 -30.4062 76° East  Level FlightAware Approximate
Fri 11:37:00 PM 50.9701 -30.1901 76° East  Level FlightAware Approximate
Fri 11:38:00 PM 51.0012 -29.9729 86° East  Level FlightAware Approximate
Fri 11:39:00 PM 51.0104 -29.7503 86° East  Level FlightAware Approximate
Fri 11:40:00 PM 51.0193 -29.5275 86° East  Level FlightAware Approximate
Fri 11:41:00 PM 51.0277 -29.3047 86° East  Level FlightAware Approximate
Fri 11:42:00 PM 51.0357 -29.0817 87° East  Level FlightAware Approximate
Fri 11:43:00 PM 51.0432 -28.8587 87° East  Level FlightAware Approximate
Fri 11:44:00 PM 51.0504 -28.6357 87° East  Level FlightAware Approximate
Fri 11:45:00 PM 51.0571 -28.4126 87° East  Level FlightAware Approximate
Fri 11:46:00 PM 51.0634 -28.1894 87° East  Level FlightAware Approximate
Fri 11:47:00 PM 51.0693 -27.9661 88° East  Level FlightAware Approximate
Fri 11:48:00 PM 51.0747 -27.7428 88° East  Level FlightAware Approximate
Fri 11:49:00 PM 51.0797 -27.5194 88° East  Level FlightAware Approximate
Fri 11:50:00 PM 51.0843 -27.2960 88° East  Level FlightAware Approximate
Fri 11:51:00 PM 51.0885 -27.0726 88° East  Level FlightAware Approximate
Fri 11:52:00 PM 51.0922 -26.8491 88° East  Level FlightAware Approximate
Fri 11:53:00 PM 51.0955 -26.6256 89° East  Level FlightAware Approximate
Fri 11:54:00 PM 51.0984 -26.4021 89° East  Level FlightAware Approximate
Fri 11:55:00 PM 51.1009 -26.1785 89° East  Level FlightAware Approximate
Fri 11:56:00 PM 51.1029 -25.9549 89° East  Level FlightAware Approximate
Fri 11:57:00 PM 51.1045 -25.7313 89° East  Level FlightAware Approximate
Fri 11:58:00 PM 51.1057 -25.5076 89° East  Level FlightAware Approximate
Fri 11:59:00 PM 51.1064 -25.2840 90° East  Level FlightAware Approximate
Sat 12:00:00 AM 51.1068 -25.0604 90° East  Level FlightAware Approximate
Sat 12:01:00 AM 51.1067 -24.8367 90° East  Level FlightAware Approximate
Sat 12:02:00 AM 51.1062 -24.6131 90° East  Level FlightAware Approximate
Sat 12:03:00 AM 51.1052 -24.3895 90° East  Level FlightAware Approximate
Sat 12:04:00 AM 51.1038 -24.1658 90° East  Level FlightAware Approximate
Sat 12:05:00 AM 51.1020 -23.9422 91° East  Level FlightAware Approximate
Sat 12:06:00 AM 51.0998 -23.7186 91° East  Level FlightAware Approximate
Sat 12:07:00 AM 51.0971 -23.4951 91° East  Level FlightAware Approximate
Sat 12:08:00 AM 51.0941 -23.2715 91° East  Level FlightAware Approximate
Sat 12:09:00 AM 51.0905 -23.0480 91° East  Level FlightAware Approximate
Sat 12:10:00 AM 51.0866 -22.8246 92° East  Level FlightAware Approximate
Sat 12:11:00 AM 51.0822 -22.6011 92° East  Level FlightAware Approximate
Sat 12:12:00 AM 51.0775 -22.3778 92° East  Level FlightAware Approximate
Sat 12:13:00 AM 51.0723 -22.1544 92° East  Level FlightAware Approximate
Sat 12:14:00 AM 51.0666 -21.9312 92° East  Level FlightAware Approximate
Sat 12:15:00 AM 51.0606 -21.7079 92° East  Level FlightAware Approximate
Sat 12:16:00 AM 51.0541 -21.4848 93° East  Level FlightAware Approximate
Sat 12:17:00 AM 51.0471 -21.2617 93° East  Level FlightAware Approximate
Sat 12:18:00 AM 51.0398 -21.0386 93° East  Level FlightAware Approximate
Sat 12:19:00 AM 51.0321 -20.8157 93° East  Level FlightAware Approximate
Sat 12:20:00 AM 51.0239 -20.5928 93° East  Level FlightAware Approximate
Sat 12:21:00 AM 51.0153 -20.3700 93° East  Level FlightAware Approximate
Sat 12:22:00 AM 51.0062 -20.1473 94° East  Level FlightAware Approximate
Sat 12:23:00 AM 51.0086 -19.9257 80° East  Level FlightAware Approximate
Sat 12:24:00 AM 51.0336 -19.7061 80° East  Level FlightAware Approximate
Sat 12:25:00 AM 51.0583 -19.4862 80° East  Level FlightAware Approximate
Sat 12:26:00 AM 51.0825 -19.2661 80° East  Level FlightAware Approximate
Sat 12:27:00 AM 51.1063 -19.0457 80° East  Level FlightAware Approximate
Sat 12:28:00 AM 51.1297 -18.8251 80° East  Level FlightAware Approximate
Sat 12:29:00 AM 51.1527 -18.6044 80° East  Level FlightAware Approximate
Sat 12:30:00 AM 51.1753 -18.3834 81° East  Level FlightAware Approximate
Sat 12:31:00 AM 51.1974 -18.1621 81° East  Level FlightAware Approximate
Sat 12:32:00 AM 51.2192 -17.9407 81° East  Level FlightAware Approximate
Sat 12:33:00 AM 51.2405 -17.7191 81° East  Level FlightAware Approximate
Sat 12:34:00 AM 51.2614 -17.4972 81° East  Level FlightAware Approximate
Sat 12:35:00 AM 51.2819 -17.2752 82° East  Level FlightAware Approximate
Sat 12:36:00 AM 51.3019 -17.0529 82° East  Level FlightAware Approximate
Sat 12:37:00 AM 51.3216 -16.8305 82° East  Level FlightAware Approximate
Sat 12:38:00 AM 51.3408 -16.6079 82° East  Level FlightAware Approximate
Sat 12:39:00 AM 51.3596 -16.3851 82° East  Level FlightAware Approximate
Sat 12:40:00 AM 51.3780 -16.1621 82° East  Level FlightAware Approximate
Sat 12:41:00 AM 51.3959 -15.9389 83° East  Level FlightAware Approximate
Sat 12:42:00 AM 51.4135 -15.7156 83° East  Level FlightAware Approximate
Sat 12:43:00 AM 51.4306 -15.4921 83° East  Level FlightAware Approximate
Sat 12:44:00 AM 51.4472 -15.2684 83° East  Level FlightAware Approximate
Sat 12:45:00 AM 51.4635 -15.0446 83° East  Level FlightAware Approximate
Sat 12:46:00 AM 51.4767 -14.8202 85° East  Level FlightAware Approximate
Sat 12:47:00 AM 51.4912 -14.5959 83° East  Level FlightAware Approximate
Sat 12:48:00 AM 51.5080 -14.3720 83° East  Level FlightAware Approximate
Sat 12:49:00 AM 51.5243 -14.1479 83° East  Level FlightAware Approximate
Sat 12:50:00 AM 51.5401 -13.9236 83° East  Level FlightAware Approximate
Sat 12:50:45 AM 51.4450 -10.8110 84° East 561 646 33,000  Level FlightAware ADS-B
Sat 12:51:00 AM 51.5555 -13.6991 84° East  Level FlightAware Approximate
Sat 12:51:30 AM 51.4640 -10.6210 81° East 562 647 33,000  Level FlightAware ADS-B
Sat 12:52:10 AM 51.4790 -10.4590 81° East 562 647 33,000  Level FlightAware ADS-B
Sat 12:52:48 AM 51.4940 -10.3080 81° East 563 648 33,000  Level FlightAware ADS-B
Sat 12:53:33 AM 51.5100 -10.1350 81° East 562 647 33,000  Level FlightAware ADS-B
Sat 12:54:18 AM 51.5270 -9.9520 81° East 562 647 33,000  Level FlightAware ADS-B
Sat 12:54:58 AM 51.5420 -9.7780 82° East 561 646 33,000  Level FlightAware ADS-B
Sat 12:55:37 AM 51.5560 -9.6290 81° East 560 644 33,000  Level FlightAware ADS-B
Sat 12:56:21 AM 51.5730 -9.4340 82° East 560 644 33,000  Level FlightAware ADS-B
Sat 12:57:06 AM 51.5890 -9.2410 82° East 559 643 33,000  Level FlightAware ADS-B
Sat 12:57:44 AM 51.6020 -9.0900 82° East 558 642 33,000  Level FlightAware ADS-B
Sat 12:58:28 AM 51.6170 -8.9130 82° East 557 641 33,000 -111 Level FlightAware ADS-B
Sat 12:58:38 AM 51.6202 -8.8383 82° East 456 525 32,900 -150 Descending FlightAware UK
Sat 12:59:08 AM 51.6303 -8.7148 82° East 456 525 32,900 182 Level FlightAware UK
Sat 12:59:11 AM 51.6310 -8.7350 82° East 556 640 33,000 122 Climbing FlightAware ADS-B
Sat 12:59:57 AM 51.6460 -8.5480 83° East 555 639 33,000  Level FlightAware ADS-B
Sat 01:00:38 AM 51.6588 -8.3452 83° East 456 525 33,000  Level FlightAware UK
Sat 01:01:06 AM 51.6680 -8.2600 83° East 554 638 33,000  Level FlightAware ADS-B
Sat 01:01:08 AM 51.6683 -8.2217 83° East 454 522 33,000  Level FlightAware UK
Sat 01:01:38 AM 51.6787 -8.0991 83° East 454 522 33,000  Level FlightAware UK
Sat 01:01:46 AM 51.6810 -8.0960 83° East 553 636 33,000  Level FlightAware ADS-B
Sat 01:02:28 AM 51.6940 -7.9230 83° East 552 635 33,000  Level FlightAware ADS-B
Sat 01:03:08 AM 51.7061 -7.7310 83° East 456 525 33,000  Level FlightAware UK
Sat 01:03:08 AM 51.7050 -7.7610 83° East 553 636 33,000  Level FlightAware ADS-B
Sat 01:03:39 AM 51.7148 -7.6075 83° East 456 525 33,000  Level FlightAware UK
Sat 01:03:56 AM 51.7190 -7.5640 83° East 553 636 33,000  Level FlightAware ADS-B
Sat 01:04:36 AM 51.7310 -7.4000 83° East 553 636 33,000  Level FlightAware ADS-B
Sat 01:04:39 AM 51.7317 -7.3618 83° East 456 525 33,000  Level FlightAware UK
Sat 01:05:09 AM 51.7394 -7.2391 83° East 454 522 33,000  Level FlightAware UK
Sat 01:05:18 AM 51.7420 -7.2330 83° East 552 635 33,000  Level FlightAware ADS-B
Sat 01:06:02 AM 51.7540 -7.0480 84° East 553 636 33,000  Level FlightAware ADS-B
Sat 01:06:39 AM 51.7606 -6.8693 84° East 454 522 33,000  Level FlightAware UK
Sat 01:06:44 AM 51.7600 -6.8740 84° East 554 638 33,000  Level FlightAware ADS-B
Sat 01:07:26 AM 51.7590 -6.7050 90° East 553 636 33,000  Level FlightAware ADS-B
Sat 01:08:06 AM 51.7560 -6.5390 90° East 553 636 33,000  Level FlightAware ADS-B
Sat 01:08:09 AM 51.7549 -6.4988 90° East 456 525 33,000  Level FlightAware UK
Sat 01:08:39 AM 51.7509 -6.3745 90° East 456 525 33,000  Level FlightAware UK
Sat 01:08:48 AM 51.7510 -6.3690 90° East 553 636 33,000  Level FlightAware ADS-B
Sat 01:09:28 AM 51.7460 -6.2040 93° East 553 636 33,000  Level FlightAware ADS-B
Sat 01:10:09 AM 51.7391 -6.0046 93° East 454 522 33,000  Level FlightAware UK
Sat 01:10:12 AM 51.7400 -6.0240 93° East 552 635 33,000  Level FlightAware ADS-B
Sat 01:10:55 AM 51.7340 -5.8450 93° East 554 638 33,000  Level FlightAware ADS-B
Sat 01:11:30 AM 51.7280 -5.6980 94° East 553 636 33,000 -81 Level FlightAware ADS-B
Sat 01:12:09 AM 51.7202 -5.5125 94° East 456 525 32,900  Descending FlightAware UK
Sat 01:12:14 AM 51.7210 -5.5200 94° East 553 636 33,000 133 Climbing FlightAware ADS-B
Sat 01:12:54 AM 51.7140 -5.3540 94° East 553 636 33,000  Level FlightAware ADS-B
Sat 01:13:36 AM 51.7070 -5.1830 94° East 546 628 33,000  Level FlightAware ADS-B
Sat 01:14:20 AM 51.6990 -5.0050 94° East 546 628 33,000  Level FlightAware ADS-B
Sat 01:14:51 AM 51.6922 -4.8545 94° East 454 522 33,000  Level FlightAware UK
Sat 01:15:00 AM 51.6920 -4.8440 94° East 548 631 33,000 -750 Level FlightAware ADS-B
Sat 01:15:39 AM 51.6850 -4.6880 94° East 549 632 32,400 -1,185 Descending FlightAware ADS-B
Sat 01:16:21 AM 51.6751 -4.4897 94° East 456 525 31,400 -1,304 Descending FlightAware UK
Sat 01:16:25 AM 51.6760 -4.5040 94° East 554 638 31,400 -545 Level FlightAware ADS-B
Sat 01:17:05 AM 51.6690 -4.3580 94° East 554 638 31,000 -500 Descending FlightAware ADS-B
Sat 01:17:49 AM 51.6580 -4.1550 95° East 537 618 30,700 -643 Descending FlightAware ADS-B
Sat 01:18:29 AM 51.6500 -3.9990 95° East 524 603 30,100 -1,054 Descending FlightAware ADS-B
Sat 01:19:03 AM 51.6421 -3.8441 95° East 418 481 29,400 -1,067 Descending FlightAware UK
Sat 01:19:14 AM 51.6410 -3.8270 95° East 508 585 29,300 -824 Descending FlightAware ADS-B
Sat 01:19:54 AM 51.6330 -3.6840 95° East 494 568 28,700 -911 Descending FlightAware ADS-B
Sat 01:20:33 AM 51.6237 -3.5153 95° East 390 449 28,100 -977 Descending FlightAware UK
Sat 01:20:37 AM 51.6240 -3.5260 95° East 482 555 28,000 -1,174 Descending FlightAware ADS-B
Sat 01:21:19 AM 51.6150 -3.3780 96° East 475 547 27,200 -1,116 Descending FlightAware ADS-B
Sat 01:22:03 AM 51.6010 -3.2260 98° East 463 533 26,400 -1,378 Descending FlightAware ADS-B
Sat 01:22:33 AM 51.5868 -3.1036 98° East 368 423 25,500 -1,500 Descending FlightAware UK
Sat 01:22:43 AM 51.5840 -3.0930 98° East 458 527 25,400 -1,472 Descending FlightAware ADS-B
Sat 01:23:26 AM 51.5640 -2.9450 102° East 460 529 24,200 -1,446 Descending FlightAware ADS-B
Sat 01:24:06 AM 51.5470 -2.8170 102° East 456 525 23,400 -1,327 Descending FlightAware ADS-B
Sat 01:24:24 AM 51.5377 -2.7512 103° East 22,900 -1,406 Descending FlightAware ADS-B
Sat 01:25:10 AM 51.5176 -2.5928 103° East 352 405 21,900 -1,342 Descending FlightAware UK
Sat 01:25:40 AM 51.5045 -2.4981 102° East 348 400 21,200 -486 Descending FlightAware UK
Sat 01:25:47 AM 51.5120 -2.5620 102° East 439 505 21,600 -1,043 Climbing FlightAware ADS-B
Sat 01:26:26 AM 51.5091 -2.3602 91° East 426 490 20,400 -1,629 Descending FlightAware ADS-B
Sat 01:26:57 AM 51.5132 -2.2652 86° East 421 484 19,700 -1,355 Descending FlightAware ADS-B
Sat 01:27:28 AM 51.5170 -2.1705 86° East 415 478 19,000 -1,065 Descending FlightAware ADS-B
Sat 01:27:59 AM 51.5208 -2.0758 86° East 401 461 18,600 -840 Descending FlightAware ADS-B
Sat 01:28:18 AM 51.5234 -2.0201 86° East 390 449 18,300 -1,154 Descending FlightAware ADS-B
Sat 01:28:25 AM 51.5256 -1.9999 80° East 386 444 18,100 -1,636 Descending FlightAware ADS-B
Sat 01:28:40 AM 51.5325 -1.9591 75° East 377 434 17,700 -1,915 Descending FlightAware ADS-B
Sat 01:29:12 AM 51.5435 -1.8750 78° East 366 421 16,600 -2,226 Descending FlightAware ADS-B
Sat 01:29:42 AM 51.5541 -1.7957 78° East 362 417 15,400 -2,400 Descending FlightAware ADS-B
Sat 01:30:12 AM 51.5651 -1.7155 78° East 358 412 14,200 -1,377 Descending FlightAware ADS-B
Sat 01:30:43 AM 51.5762 -1.6369 77° East 357 411 14,000 -197 Descending FlightAware ADS-B
Sat 01:31:13 AM 51.5873 -1.5581 77° East 360 414 14,000  Level FlightAware ADS-B
Sat 01:31:44 AM 51.5982 -1.4787 78° East 361 415 14,000  Level FlightAware ADS-B
Sat 01:32:15 AM 51.6092 -1.3974 78° East 359 413 14,000  Level FlightAware ADS-B
Sat 01:32:45 AM 51.6200 -1.3181 78° East 360 414 14,000 -500 Level FlightAware ADS-B
Sat 01:33:15 AM 51.6305 -1.2401 78° East 351 404 13,500 -787 Descending FlightAware ADS-B
Sat 01:33:46 AM 51.6408 -1.1640 78° East 337 388 13,200 -787 Descending FlightAware ADS-B
Sat 01:34:16 AM 51.6503 -1.0920 78° East 328 377 12,700 -1,000 Descending FlightAware ADS-B
Sat 01:34:46 AM 51.6597 -1.0208 78° East 322 371 12,200 -982 Descending FlightAware ADS-B
Sat 01:35:11 AM 51.6672 -0.9638 78° East 317 365 11,800 -982 Descending FlightAware ADS-B
Sat 01:35:41 AM 51.6763 -0.8946 78° East 314 361 11,300 -1,017 Descending FlightAware ADS-B
Sat 01:36:10 AM 51.6849 -0.8292 78° East 309 356 10,800 -1,017 Descending FlightAware ADS-B
Sat 01:36:40 AM 51.6937 -0.7612 78° East 308 354 10,300 -980 Descending FlightAware ADS-B
Sat 01:36:59 AM 51.6990 -0.7195 78° East 305 351 10,000 -1,059 Descending FlightAware ADS-B
Sat 01:37:14 AM 51.7032 -0.6857 79° East 303 349 9,700 -1,161 Descending FlightAware ADS-B
Sat 01:37:30 AM 51.7079 -0.6506 78° East 302 348 9,400 -938 Descending FlightAware ADS-B
Sat 01:37:46 AM 51.7124 -0.6162 78° East 301 346 9,200 -774 Descending FlightAware ADS-B
Sat 01:38:01 AM 51.7167 -0.5818 79° East 297 342 9,000 -545 Descending FlightAware ADS-B
Sat 01:38:08 AM 51.7185 -0.5669 79° East 295 339 9,000  Level FlightAware ADS-B
Sat 01:38:11 AM 51.7190 -0.5596 84° East 293 337 9,000  Level FlightAware ADS-B
Sat 01:38:16 AM 51.7190 -0.5501 90° East 289 333 9,000  Level FlightAware ADS-B
Sat 01:38:19 AM 51.7186 -0.5441 96° East 285 328 9,000  Level FlightAware ADS-B
Sat 01:38:22 AM 51.7177 -0.5363 101° East 282 325 9,000  Level FlightAware ADS-B
Sat 01:38:26 AM 51.7162 -0.5293 109° East 278 320 9,000  Level FlightAware ADS-B
Sat 01:38:29 AM 51.7147 -0.5232 111° Southeast 275 316 9,000  Level FlightAware ADS-B
Sat 01:38:34 AM 51.7120 -0.5152 119° Southeast 271 312 9,000  Level FlightAware ADS-B
Sat 01:38:39 AM 51.7084 -0.5072 126° Southeast 267 307 9,000  Level FlightAware ADS-B
Sat 01:38:42 AM 51.7059 -0.5028 133° Southeast 265 305 9,000  Level FlightAware ADS-B
Sat 01:38:45 AM 51.7029 -0.4983 137° Southeast 262 302 9,000  Level FlightAware ADS-B
Sat 01:38:49 AM 51.6996 -0.4943 143° Southeast 258 297 9,000  Level FlightAware ADS-B
Sat 01:38:52 AM 51.6957 -0.4903 147° Southeast 254 292 9,000  Level FlightAware ADS-B
Sat 01:38:56 AM 51.6924 -0.4876 153° Southeast 250 288 9,000  Level FlightAware ADS-B
Sat 01:39:01 AM 51.6872 -0.4845 160° South 244 281 9,000  Level FlightAware ADS-B
Sat 01:39:04 AM 51.6831 -0.4828 165° South 238 274 9,000  Level FlightAware ADS-B
Sat 01:39:08 AM 51.6792 -0.4818 171° South 233 268 9,000  Level FlightAware ADS-B
Sat 01:39:11 AM 51.6761 -0.4815 177° South 231 266 9,000  Level FlightAware ADS-B
Sat 01:39:17 AM 51.6696 -0.4817 181° South 223 257 9,000  Level FlightAware ADS-B
Sat 01:39:22 AM 51.6645 -0.4831 190° South 219 252 9,000  Level FlightAware ADS-B
Sat 01:39:26 AM 51.6605 -0.4849 196° South 216 249 9,000  Level FlightAware ADS-B
Sat 01:39:30 AM 51.6568 -0.4870 200° South 214 246 9,000  Level FlightAware ADS-B
Sat 01:39:34 AM 51.6539 -0.4893 206° Southwest 213 245 9,000  Level FlightAware ADS-B
Sat 01:39:38 AM 51.6502 -0.4929 210° Southwest 211 243 9,000  Level FlightAware ADS-B
Sat 01:39:42 AM 51.6472 -0.4961 214° Southwest 211 243 9,000  Level FlightAware ADS-B
Sat 01:39:47 AM 51.6434 -0.5017 222° Southwest 208 239 9,000  Level FlightAware ADS-B
Sat 01:39:51 AM 51.6412 -0.5055 227° Southwest 207 238 9,000  Level FlightAware ADS-B
Sat 01:39:56 AM 51.6380 -0.5121 232° Southwest 204 235 9,000  Level FlightAware ADS-B
Sat 01:39:59 AM 51.6363 -0.5164 238° Southwest 203 234 9,000  Level FlightAware ADS-B
Sat 01:40:03 AM 51.6346 -0.5215 241° Southwest 203 234 9,000  Level FlightAware ADS-B
Sat 01:40:08 AM 51.6329 -0.5283 248° West 204 235 9,000  Level FlightAware ADS-B
Sat 01:40:11 AM 51.6321 -0.5326 253° West 204 235 9,000  Level FlightAware ADS-B
Sat 01:40:14 AM 51.6313 -0.5376 255° West 206 237 9,000  Level FlightAware ADS-B
Sat 01:40:18 AM 51.6308 -0.5429 261° West 208 239 9,000  Level FlightAware ADS-B
Sat 01:40:21 AM 51.6304 -0.5479 263° West 210 242 9,000  Level FlightAware ADS-B
Sat 01:40:26 AM 51.6306 -0.5560 272° West 212 244 9,000  Level FlightAware ADS-B
Sat 01:40:31 AM 51.6311 -0.5635 276° West 215 247 9,000  Level FlightAware ADS-B
Sat 01:40:35 AM 51.6320 -0.5697 283° West 217 250 9,000  Level FlightAware ADS-B
Sat 01:40:39 AM 51.6333 -0.5760 288° West 221 254 9,000  Level FlightAware ADS-B
Sat 01:40:45 AM 51.6357 -0.5848 294° West 226 260 9,000  Level FlightAware ADS-B
Sat 01:40:52 AM 51.6395 -0.5954 300° West 229 264 9,000  Level FlightAware ADS-B
Sat 01:40:55 AM 51.6408 -0.6004 293° West 227 261 9,000  Level FlightAware ADS-B
Sat 01:41:01 AM 51.6428 -0.6087 291° West 225 259 9,000  Level FlightAware ADS-B
Sat 01:41:12 AM 51.6464 -0.6265 288° West 225 259 9,000  Level FlightAware ADS-B
Sat 01:41:26 AM 51.6518 -0.6489 291° West 226 260 9,000  Level FlightAware ADS-B
Sat 01:41:37 AM 51.6563 -0.6657 293° West 227 261 9,000  Level FlightAware ADS-B
Sat 01:41:52 AM 51.6629 -0.6889 295° West 229 264 9,000  Level FlightAware ADS-B
Sat 01:42:04 AM 51.6685 -0.7074 296° West 229 264 9,000  Level FlightAware ADS-B
Sat 01:42:07 AM 51.6699 -0.7119 297° West 230 265 9,000  Level FlightAware ADS-B
Sat 01:42:11 AM 51.6721 -0.7173 303° West 233 268 9,000  Level FlightAware ADS-B
Sat 01:42:15 AM 51.6747 -0.7223 310° West 238 274 9,000  Level FlightAware ADS-B
Sat 01:42:19 AM 51.6782 -0.7275 317° Northwest 242 278 9,000  Level FlightAware ADS-B
Sat 01:42:25 AM 51.6831 -0.7333 323° Northwest 246 283 9,000  Level FlightAware ADS-B
Sat 01:42:28 AM 51.6866 -0.7368 329° Northwest 251 289 9,000  Level FlightAware ADS-B
Sat 01:42:32 AM 51.6910 -0.7407 331° Northwest 258 297 9,000  Level FlightAware ADS-B
Sat 01:42:37 AM 51.6960 -0.7440 338° Northwest 264 304 9,000  Level FlightAware ADS-B
Sat 01:42:41 AM 51.7007 -0.7462 344° North 269 310 9,000  Level FlightAware ADS-B
Sat 01:42:45 AM 51.7054 -0.7478 349° North 275 316 9,000  Level FlightAware ADS-B
Sat 01:42:48 AM 51.7100 -0.7486 354° North 279 321 9,000  Level FlightAware ADS-B
Sat 01:42:52 AM 51.7153 -0.7486 360° North 283 326 9,000  Level FlightAware ADS-B
Sat 01:42:56 AM 51.7208 -0.7475 North 287 330 9,000  Level FlightAware ADS-B
Sat 01:43:01 AM 51.7267 -0.7452 14° North 292 336 9,000  Level FlightAware ADS-B
Sat 01:43:05 AM 51.7316 -0.7420 22° Northeast 295 339 9,000  Level FlightAware ADS-B
Sat 01:43:10 AM 51.7376 -0.7367 29° Northeast 301 346 9,000  Level FlightAware ADS-B
Sat 01:43:15 AM 51.7435 -0.7293 38° Northeast 305 351 9,000  Level FlightAware ADS-B
Sat 01:43:19 AM 51.7472 -0.7229 47° Northeast 307 353 9,000  Level FlightAware ADS-B
Sat 01:43:22 AM 51.7500 -0.7172 52° Northeast 308 354 9,000  Level FlightAware ADS-B
Sat 01:43:26 AM 51.7528 -0.7101 57° Northeast 309 356 9,000  Level FlightAware ADS-B
Sat 01:43:30 AM 51.7551 -0.7019 66° East 307 353 9,000  Level FlightAware ADS-B
Sat 01:43:33 AM 51.7565 -0.6942 74° East 304 350 9,000  Level FlightAware ADS-B
Sat 01:43:37 AM 51.7575 -0.6870 77° East 301 346 9,000  Level FlightAware ADS-B
Sat 01:43:40 AM 51.7578 -0.6795 86° East 296 341 9,000  Level FlightAware ADS-B
Sat 01:43:43 AM 51.7578 -0.6730 90° East 292 336 9,000  Level FlightAware ADS-B
Sat 01:43:46 AM 51.7572 -0.6658 98° East 287 330 9,000  Level FlightAware ADS-B
Sat 01:43:52 AM 51.7553 -0.6535 104° East 279 321 9,000  Level FlightAware ADS-B
Sat 01:43:56 AM 51.7536 -0.6468 112° Southeast 274 315 9,000  Level FlightAware ADS-B
Sat 01:44:12 AM 51.7446 -0.6176 116° Southeast 271 312 9,000  Level FlightAware ADS-B
Sat 01:44:25 AM 51.7373 -0.5930 116° Southeast 271 312 9,000  Level FlightAware ADS-B
Sat 01:44:41 AM 51.7285 -0.5656 117° Southeast 271 312 9,000  Level FlightAware ADS-B
Sat 01:44:54 AM 51.7209 -0.5414 117° Southeast 268 308 9,000  Level FlightAware ADS-B
Sat 01:44:59 AM 51.7180 -0.5338 121° Southeast 263 303 9,000  Level FlightAware ADS-B
Sat 01:45:03 AM 51.7153 -0.5280 127° Southeast 257 296 9,000  Level FlightAware ADS-B
Sat 01:45:07 AM 51.7120 -0.5223 133° Southeast 251 289 9,000  Level FlightAware ADS-B
Sat 01:45:13 AM 51.7065 -0.5154 142° Southeast 243 280 9,000  Level FlightAware ADS-B
Sat 01:45:16 AM 51.7031 -0.5123 150° Southeast 239 275 9,000  Level FlightAware ADS-B
Sat 01:45:21 AM 51.6990 -0.5093 156° South 235 270 9,000  Level FlightAware ADS-B
Sat 01:45:24 AM 51.6955 -0.5073 160° South 233 268 9,000  Level FlightAware ADS-B
Sat 01:45:28 AM 51.6915 -0.5058 167° South 230 265 9,000  Level FlightAware ADS-B
Sat 01:45:31 AM 51.6881 -0.5050 171° South 228 262 9,000  Level FlightAware ADS-B
Sat 01:45:38 AM 51.6810 -0.5047 179° South 222 255 9,000  Level FlightAware ADS-B
Sat 01:45:43 AM 51.6760 -0.5058 187° South 219 252 9,000  Level FlightAware ADS-B
Sat 01:45:48 AM 51.6711 -0.5079 195° South 215 247 9,000  Level FlightAware ADS-B
Sat 01:45:53 AM 51.6661 -0.5110 201° Southwest 213 245 9,000  Level FlightAware ADS-B
Sat 01:45:57 AM 51.6634 -0.5134 209° Southwest 211 243 9,000  Level FlightAware ADS-B
Sat 01:46:02 AM 51.6593 -0.5178 214° Southwest 209 241 9,000  Level FlightAware ADS-B
Sat 01:46:07 AM 51.6555 -0.5229 220° Southwest 208 239 9,000  Level FlightAware ADS-B
Sat 01:46:11 AM 51.6526 -0.5283 229° Southwest 207 238 9,000  Level FlightAware ADS-B
Sat 01:46:15 AM 51.6504 -0.5333 235° Southwest 207 238 9,000  Level FlightAware ADS-B
Sat 01:46:19 AM 51.6485 -0.5384 239° Southwest 207 238 9,000  Level FlightAware ADS-B
Sat 01:46:24 AM 51.6469 -0.5445 247° West 207 238 9,000  Level FlightAware ADS-B
Sat 01:46:28 AM 51.6455 -0.5509 250° West 208 239 9,000  Level FlightAware ADS-B
Sat 01:46:32 AM 51.6446 -0.5577 258° West 210 242 9,000  Level FlightAware ADS-B
Sat 01:46:37 AM 51.6442 -0.5651 265° West 212 244 9,000  Level FlightAware ADS-B
Sat 01:46:42 AM 51.6444 -0.5730 272° West 216 249 9,000  Level FlightAware ADS-B
Sat 01:46:46 AM 51.6449 -0.5789 278° West 218 251 9,000  Level FlightAware ADS-B
Sat 01:46:49 AM 51.6456 -0.5836 283° West 220 253 9,000  Level FlightAware ADS-B
Sat 01:46:52 AM 51.6464 -0.5882 286° West 222 255 9,000  Level FlightAware ADS-B
Sat 01:46:55 AM 51.6477 -0.5936 291° West 224 258 9,000  Level FlightAware ADS-B
Sat 01:47:01 AM 51.6503 -0.6016 297° West 227 261 9,000  Level FlightAware ADS-B
Sat 01:47:05 AM 51.6525 -0.6091 296° West 227 261 9,000  Level FlightAware ADS-B
Sat 01:47:19 AM 51.6574 -0.6302 291° West 224 258 9,000  Level FlightAware ADS-B
Sat 01:47:30 AM 51.6613 -0.6467 291° West 225 259 9,000  Level FlightAware ADS-B
Sat 01:47:36 AM 51.6640 -0.6574 292° West 224 258 9,000  Level FlightAware ADS-B
Sat 01:47:45 AM 51.6679 -0.6711 295° West 224 258 9,000  Level FlightAware ADS-B
Sat 01:47:56 AM 51.6724 -0.6871 294° West 225 259 9,000  Level FlightAware ADS-B
Sat 01:48:03 AM 51.6758 -0.6981 297° West 227 261 9,000  Level FlightAware ADS-B
Sat 01:48:07 AM 51.6779 -0.7040 300° West 232 267 9,000  Level FlightAware ADS-B
Sat 01:48:12 AM 51.6812 -0.7106 309° West 241 277 9,000  Level FlightAware ADS-B
Sat 01:48:16 AM 51.6844 -0.7153 318° Northwest 246 283 9,000  Level FlightAware ADS-B
Sat 01:48:20 AM 51.6877 -0.7195 321° Northwest 250 288 9,000  Level FlightAware ADS-B
Sat 01:48:25 AM 51.6929 -0.7245 329° Northwest 256 295 9,000  Level FlightAware ADS-B
Sat 01:48:29 AM 51.6974 -0.7280 334° Northwest 261 300 9,000  Level FlightAware ADS-B
Sat 01:48:33 AM 51.7021 -0.7307 340° North 269 310 9,000  Level FlightAware ADS-B
Sat 01:48:37 AM 51.7066 -0.7326 346° North 273 314 9,000  Level FlightAware ADS-B
Sat 01:48:41 AM 51.7116 -0.7335 354° North 279 321 9,000  Level FlightAware ADS-B
Sat 01:48:44 AM 51.7160 -0.7339 357° North 284 327 9,000  Level FlightAware ADS-B
Sat 01:48:48 AM 51.7217 -0.7329 North 290 334 9,000  Level FlightAware ADS-B
Sat 01:48:52 AM 51.7268 -0.7310 13° North 295 339 9,000  Level FlightAware ADS-B
Sat 01:48:56 AM 51.7320 -0.7278 21° North 298 343 9,000  Level FlightAware ADS-B
Sat 01:49:00 AM 51.7367 -0.7238 27° Northeast 302 348 9,000  Level FlightAware ADS-B
Sat 01:49:03 AM 51.7406 -0.7195 35° Northeast 304 350 9,000  Level FlightAware ADS-B
Sat 01:49:09 AM 51.7460 -0.7108 45° Northeast 305 351 9,000  Level FlightAware ADS-B
Sat 01:49:14 AM 51.7505 -0.7007 54° Northeast 305 351 9,000  Level FlightAware ADS-B
Sat 01:49:18 AM 51.7529 -0.6927 64° Northeast 303 349 9,000  Level FlightAware ADS-B
Sat 01:49:21 AM 51.7542 -0.6861 73° East 301 346 9,000  Level FlightAware ADS-B
Sat 01:49:25 AM 51.7552 -0.6783 78° East 298 343 9,000  Level FlightAware ADS-B
Sat 01:49:31 AM 51.7557 -0.6663 86° East 291 335 9,000  Level FlightAware ADS-B
Sat 01:49:36 AM 51.7546 -0.6544 99° East 285 328 9,000  Level FlightAware ADS-B
Sat 01:49:40 AM 51.7531 -0.6466 107° East 277 319 9,000  Level FlightAware ADS-B
Sat 01:49:46 AM 51.7500 -0.6356 114° Southeast 273 314 9,000  Level FlightAware ADS-B
Sat 01:49:58 AM 51.7431 -0.6132 116° Southeast 272 313 9,000  Level FlightAware ADS-B
Sat 01:50:13 AM 51.7342 -0.5866 118° Southeast 270 311 9,000  Level FlightAware ADS-B
Sat 01:50:29 AM 51.7251 -0.5591 118° Southeast 271 312 9,000  Level FlightAware ADS-B
Sat 01:50:39 AM 51.7191 -0.5409 118° Southeast 271 312 9,000  Level FlightAware ADS-B
Sat 01:50:42 AM 51.7173 -0.5356 119° Southeast 268 308 9,000  Level FlightAware ADS-B
Sat 01:50:46 AM 51.7148 -0.5299 126° Southeast 261 300 9,000  Level FlightAware ADS-B
Sat 01:50:51 AM 51.7108 -0.5228 132° Southeast 252 290 9,000  Level FlightAware ADS-B
Sat 01:50:58 AM 51.7044 -0.5146 142° Southeast 242 278 9,000  Level FlightAware ADS-B
Sat 01:51:01 AM 51.7014 -0.5118 149° Southeast 238 274 9,000  Level FlightAware ADS-B
Sat 01:51:05 AM 51.6979 -0.5092 155° Southeast 235 270 9,000  Level FlightAware ADS-B
Sat 01:51:08 AM 51.6944 -0.5071 160° South 231 266 9,000  Level FlightAware ADS-B
Sat 01:51:12 AM 51.6899 -0.5051 165° South 228 262 9,000  Level FlightAware ADS-B
Sat 01:51:16 AM 51.6858 -0.5043 173° South 224 258 9,000  Level FlightAware ADS-B
Sat 01:51:19 AM 51.6827 -0.5040 176° South 222 255 9,000  Level FlightAware ADS-B
Sat 01:51:23 AM 51.6792 -0.5041 182° South 218 251 9,000  Level FlightAware ADS-B
Sat 01:51:26 AM 51.6757 -0.5049 188° South 216 249 9,000  Level FlightAware ADS-B
Sat 01:51:29 AM 51.6727 -0.5058 190° South 213 245 9,000  Level FlightAware ADS-B
Sat 01:51:33 AM 51.6695 -0.5074 197° South 211 243 9,000  Level FlightAware ADS-B
Sat 01:51:38 AM 51.6650 -0.5103 202° Southwest 207 238 9,000  Level FlightAware ADS-B
Sat 01:51:42 AM 51.6619 -0.5128 207° Southwest 205 236 9,000  Level FlightAware ADS-B
Sat 01:51:47 AM 51.6581 -0.5169 214° Southwest 203 234 9,000  Level FlightAware ADS-B
Sat 01:51:51 AM 51.6546 -0.5213 218° Southwest 202 232 9,000  Level FlightAware ADS-B
Sat 01:51:55 AM 51.6519 -0.5257 225° Southwest 202 232 9,000  Level FlightAware ADS-B
Sat 01:51:59 AM 51.6498 -0.5304 234° Southwest 202 232 9,000  Level FlightAware ADS-B
Sat 01:52:03 AM 51.6476 -0.5355 235° Southwest 203 234 9,000  Level FlightAware ADS-B
Sat 01:52:09 AM 51.6453 -0.5432 244° Southwest 205 236 9,000  Level FlightAware ADS-B
Sat 01:52:12 AM 51.6443 -0.5479 251° West 206 237 9,000  Level FlightAware ADS-B
Sat 01:52:15 AM 51.6432 -0.5529 250° West 209 241 9,000  Level FlightAware ADS-B
Sat 01:52:20 AM 51.6426 -0.5599 262° West 211 243 9,000  Level FlightAware ADS-B
Sat 01:52:25 AM 51.6423 -0.5672 266° West 214 246 9,000  Level FlightAware ADS-B
Sat 01:52:28 AM 51.6423 -0.5728 270° West 216 249 9,000  Level FlightAware ADS-B
Sat 01:52:31 AM 51.6426 -0.5779 275° West 219 252 9,000  Level FlightAware ADS-B
Sat 01:52:37 AM 51.6439 -0.5864 284° West 222 255 9,000  Level FlightAware ADS-B
Sat 01:52:40 AM 51.6450 -0.5915 289° West 226 260 9,000  Level FlightAware ADS-B
Sat 01:52:44 AM 51.6465 -0.5970 294° West 229 264 9,000  Level FlightAware ADS-B
Sat 01:52:51 AM 51.6499 -0.6081 296° West 229 264 9,000  Level FlightAware ADS-B
Sat 01:52:54 AM 51.6512 -0.6132 293° West 227 261 9,000  Level FlightAware ADS-B
Sat 01:53:00 AM 51.6531 -0.6219 289° West 224 258 9,000  Level FlightAware ADS-B
Sat 01:53:09 AM 51.6562 -0.6359 290° West 223 257 9,000  Level FlightAware ADS-B
Sat 01:53:24 AM 51.6622 -0.6593 292° West 223 257 9,000  Level FlightAware ADS-B
Sat 01:53:39 AM 51.6686 -0.6821 294° West 226 260 9,000  Level FlightAware ADS-B
Sat 01:53:51 AM 51.6738 -0.6999 295° West 229 264 9,000  Level FlightAware ADS-B
Sat 01:53:54 AM 51.6758 -0.7056 299° West 233 268 9,000  Level FlightAware ADS-B
Sat 01:53:59 AM 51.6793 -0.7126 309° West 239 275 9,000  Level FlightAware ADS-B
Sat 01:54:03 AM 51.6827 -0.7177 317° Northwest 246 283 9,000  Level FlightAware ADS-B
Sat 01:54:07 AM 51.6859 -0.7219 321° Northwest 250 288 9,000  Level FlightAware ADS-B
Sat 01:54:12 AM 51.6903 -0.7263 328° Northwest 255 293 9,000  Level FlightAware ADS-B
Sat 01:54:15 AM 51.6935 -0.7291 332° Northwest 259 298 9,000  Level FlightAware ADS-B
Sat 01:54:19 AM 51.6982 -0.7323 337° Northwest 264 304 9,000  Level FlightAware ADS-B
Sat 01:54:23 AM 51.7029 -0.7346 343° North 271 312 9,000  Level FlightAware ADS-B
Sat 01:54:26 AM 51.7071 -0.7360 349° North 275 316 9,000  Level FlightAware ADS-B
Sat 01:54:29 AM 51.7110 -0.7368 353° North 279 321 9,000  Level FlightAware ADS-B
Sat 01:54:32 AM 51.7152 -0.7370 358° North 284 327 9,000  Level FlightAware ADS-B
Sat 01:54:37 AM 51.7205 -0.7362 North 288 331 9,000  Level FlightAware ADS-B
Sat 01:54:40 AM 51.7246 -0.7347 13° North 292 336 9,000  Level FlightAware ADS-B
Sat 01:54:43 AM 51.7296 -0.7322 18° North 296 341 9,000  Level FlightAware ADS-B
Sat 01:54:48 AM 51.7357 -0.7275 26° Northeast 299 344 9,000  Level FlightAware ADS-B
Sat 01:54:52 AM 51.7403 -0.7223 35° Northeast 302 348 9,000  Level FlightAware ADS-B
Sat 01:54:58 AM 51.7455 -0.7143 44° Northeast 305 351 9,000  Level FlightAware ADS-B
Sat 01:55:01 AM 51.7484 -0.7086 50° Northeast 306 352 9,000  Level FlightAware ADS-B
Sat 01:55:04 AM 51.7509 -0.7019 59° Northeast 305 351 9,000  Level FlightAware ADS-B
Sat 01:55:11 AM 51.7542 -0.6890 68° East 303 349 9,000  Level FlightAware ADS-B
Sat 01:55:15 AM 51.7554 -0.6780 80° East 297 342 9,000  Level FlightAware ADS-B
Sat 01:55:19 AM 51.7557 -0.6696 87° East 293 337 9,000  Level FlightAware ADS-B
Sat 01:55:24 AM 51.7550 -0.6603 97° East 286 329 9,000  Level FlightAware ADS-B
Sat 01:55:29 AM 51.7534 -0.6498 104° East 279 321 9,000  Level FlightAware ADS-B
Sat 01:55:32 AM 51.7517 -0.6430 112° Southeast 274 315 9,000  Level FlightAware ADS-B
Sat 01:55:51 AM 51.7414 -0.6096 116° Southeast 270 311 9,000  Level FlightAware ADS-B
Sat 01:56:08 AM 51.7314 -0.5795 118° Southeast 269 310 9,000  Level FlightAware ADS-B
Sat 01:56:23 AM 51.7223 -0.5519 118° Southeast 270 311 9,000  Level FlightAware ADS-B
Sat 01:56:30 AM 51.7184 -0.5405 119° Southeast 269 310 9,000  Level FlightAware ADS-B
Sat 01:56:33 AM 51.7165 -0.5353 120° Southeast 264 304 9,000  Level FlightAware ADS-B
Sat 01:56:36 AM 51.7140 -0.5303 129° Southeast 259 298 9,000  Level FlightAware ADS-B
Sat 01:56:40 AM 51.7113 -0.5257 133° Southeast 252 290 9,000  Level FlightAware ADS-B
Sat 01:56:43 AM 51.7087 -0.5218 137° Southeast 247 284 9,000  Level FlightAware ADS-B
Sat 01:56:47 AM 51.7052 -0.5177 144° Southeast 241 277 9,000  Level FlightAware ADS-B
Sat 01:56:50 AM 51.7017 -0.5143 149° Southeast 236 272 9,000  Level FlightAware ADS-B
Sat 01:56:55 AM 51.6966 -0.5106 156° South 230 265 9,000  Level FlightAware ADS-B
Sat 01:57:00 AM 51.6924 -0.5083 161° South 226 260 9,000  Level FlightAware ADS-B
Sat 01:57:03 AM 51.6892 -0.5074 170° South 223 257 9,000  Level FlightAware ADS-B
Sat 01:57:08 AM 51.6835 -0.5064 173° South 219 252 9,000  Level FlightAware ADS-B
Sat 01:57:11 AM 51.6804 -0.5064 181° South 217 250 9,000  Level FlightAware ADS-B
Sat 01:57:14 AM 51.6776 -0.5067 184° South 216 249 9,000  Level FlightAware ADS-B
Sat 01:57:20 AM 51.6722 -0.5081 189° South 213 245 9,000  Level FlightAware ADS-B
Sat 01:57:24 AM 51.6681 -0.5100 196° South 211 243 9,000  Level FlightAware ADS-B
Sat 01:57:30 AM 51.6629 -0.5138 204° Southwest 208 239 9,000  Level FlightAware ADS-B
Sat 01:57:34 AM 51.6596 -0.5167 209° Southwest 207 238 9,000  Level FlightAware ADS-B
Sat 01:57:39 AM 51.6559 -0.5212 217° Southwest 206 237 9,000  Level FlightAware ADS-B
Sat 01:57:44 AM 51.6525 -0.5264 224° Southwest 205 236 9,000  Level FlightAware ADS-B
Sat 01:57:51 AM 51.6484 -0.5341 230° Southwest 206 237 9,000  Level FlightAware ADS-B
Sat 01:57:54 AM 51.6467 -0.5388 240° Southwest 206 237 9,000  Level FlightAware ADS-B
Sat 01:58:00 AM 51.6442 -0.5472 244° Southwest 207 238 9,000  Level FlightAware ADS-B
Sat 01:58:04 AM 51.6431 -0.5524 251° West 207 238 9,000  Level FlightAware ADS-B
Sat 01:58:07 AM 51.6422 -0.5577 255° West 207 238 9,000  Level FlightAware ADS-B
Sat 01:58:13 AM 51.6416 -0.5666 264° West 209 241 9,000  Level FlightAware ADS-B
Sat 01:58:19 AM 51.6416 -0.5754 270° West 210 242 9,000  Level FlightAware ADS-B
Sat 01:58:22 AM 51.6418 -0.5802 274° West 212 244 9,000  Level FlightAware ADS-B
Sat 01:58:25 AM 51.6423 -0.5852 279° West 215 247 9,000  Level FlightAware ADS-B
Sat 01:58:28 AM 51.6432 -0.5901 286° West 218 251 9,000  Level FlightAware ADS-B
Sat 01:58:34 AM 51.6451 -0.5989 289° West 224 258 9,000  Level FlightAware ADS-B
Sat 01:58:39 AM 51.6473 -0.6061 296° West 227 261 9,000  Level FlightAware ADS-B
Sat 01:58:43 AM 51.6491 -0.6118 297° West 226 260 9,000  Level FlightAware ADS-B
Sat 01:58:46 AM 51.6505 -0.6176 291° West 225 259 9,000  Level FlightAware ADS-B
Sat 01:58:50 AM 51.6517 -0.6231 289° West 222 255 9,000  Level FlightAware ADS-B
Sat 01:58:58 AM 51.6545 -0.6361 289° West 222 255 9,000  Level FlightAware ADS-B
Sat 01:59:11 AM 51.6595 -0.6561 292° West 225 259 9,000  Level FlightAware ADS-B
Sat 01:59:16 AM 51.6616 -0.6629 296° West 229 264 9,000  Level FlightAware ADS-B
Sat 01:59:19 AM 51.6638 -0.6681 304° West 233 268 9,000  Level FlightAware ADS-B
Sat 01:59:23 AM 51.6665 -0.6730 312° West 239 275 9,000  Level FlightAware ADS-B
Sat 01:59:26 AM 51.6694 -0.6769 320° Northwest 244 281 9,000  Level FlightAware ADS-B
Sat 01:59:32 AM 51.6744 -0.6820 328° Northwest 254 292 9,000  Level FlightAware ADS-B
Sat 01:59:35 AM 51.6781 -0.6848 335° Northwest 261 300 9,000  Level FlightAware ADS-B
Sat 01:59:39 AM 51.6828 -0.6872 342° North 270 311 9,000  Level FlightAware ADS-B
Sat 01:59:43 AM 51.6877 -0.6886 350° North 278 320 9,000  Level FlightAware ADS-B
Sat 01:59:46 AM 51.6921 -0.6891 356° North 283 326 9,000  Level FlightAware ADS-B
Sat 01:59:49 AM 51.6959 -0.6890 North 287 330 9,000  Level FlightAware ADS-B
Sat 01:59:54 AM 51.7018 -0.6878 North 293 337 9,000  Level FlightAware ADS-B
Sat 01:59:59 AM 51.7081 -0.6849 16° North 297 342 9,000  Level FlightAware ADS-B
Sat 02:00:03 AM 51.7136 -0.6812 23° Northeast 300 345 9,000  Level FlightAware ADS-B
Sat 02:00:09 AM 51.7205 -0.6744 31° Northeast 303 349 9,000  Level FlightAware ADS-B
Sat 02:00:13 AM 51.7249 -0.6686 39° Northeast 304 350 9,000  Level FlightAware ADS-B
Sat 02:00:16 AM 51.7285 -0.6628 45° Northeast 303 349 9,000  Level FlightAware ADS-B
Sat 02:00:20 AM 51.7319 -0.6555 53° Northeast 302 348 9,000  Level FlightAware ADS-B
Sat 02:00:24 AM 51.7344 -0.6489 59° Northeast 302 348 9,000  Level FlightAware ADS-B
Sat 02:00:29 AM 51.7373 -0.6392 64° Northeast 300 345 9,000  Level FlightAware ADS-B
Sat 02:00:32 AM 51.7388 -0.6316 72° East 299 344 9,000  Level FlightAware ADS-B
Sat 02:00:35 AM 51.7398 -0.6242 78° East 297 342 9,000  Level FlightAware ADS-B
Sat 02:00:39 AM 51.7403 -0.6167 84° East 294 338 9,000  Level FlightAware ADS-B
Sat 02:00:44 AM 51.7402 -0.6054 91° East 290 334 9,000  Level FlightAware ADS-B
Sat 02:00:48 AM 51.7396 -0.5978 97° East 285 328 9,000  Level FlightAware ADS-B
Sat 02:00:52 AM 51.7380 -0.5886 106° East 279 321 9,000  Level FlightAware ADS-B
Sat 02:00:56 AM 51.7362 -0.5815 112° Southeast 274 315 9,000  Level FlightAware ADS-B
Sat 02:01:00 AM 51.7342 -0.5754 118° Southeast 268 308 9,000  Level FlightAware ADS-B
Sat 02:01:15 AM 51.7244 -0.5498 122° Southeast 266 306 9,000  Level FlightAware ADS-B
Sat 02:01:19 AM 51.7219 -0.5428 120° Southeast 267 307 9,000  Level FlightAware ADS-B
Sat 02:01:29 AM 51.7161 -0.5244 117° Southeast 272 313 9,000 -444 Level FlightAware ADS-B
Sat 02:01:46 AM 51.7081 -0.4932 112° Southeast 276 318 8,800 -563 Descending FlightAware ADS-B
Sat 02:02:01 AM 51.7005 -0.4635 112° Southeast 273 314 8,700 -387 Descending FlightAware ADS-B
Sat 02:02:17 AM 51.6930 -0.4336 112° Southeast 268 308 8,600 -581 Descending FlightAware ADS-B
Sat 02:02:32 AM 51.6856 -0.4061 113° Southeast 266 306 8,400 -643 Descending FlightAware ADS-B
Sat 02:02:45 AM 51.6796 -0.3838 113° Southeast 266 306 8,300 -429 Descending FlightAware ADS-B
Sat 02:03:00 AM 51.6707 -0.3564 118° Southeast 266 306 8,200 -400 Descending FlightAware ADS-B
Sat 02:03:15 AM 51.6617 -0.3306 119° Southeast 265 305 8,100 -387 Descending FlightAware ADS-B
Sat 02:03:31 AM 51.6526 -0.3038 119° Southeast 264 304 8,000 -176 Descending FlightAware ADS-B
Sat 02:03:49 AM 51.6422 -0.2731 119° Southeast 262 302 8,000  Level FlightAware ADS-B
Sat 02:04:04 AM 51.6334 -0.2470 119° Southeast 265 305 8,000 -200 Level FlightAware ADS-B
Sat 02:04:19 AM 51.6243 -0.2206 119° Southeast 268 308 7,900 -581 Descending FlightAware ADS-B
Sat 02:04:35 AM 51.6149 -0.1941 120° Southeast 265 305 7,700 -774 Descending FlightAware ADS-B
Sat 02:04:50 AM 51.6058 -0.1686 120° Southeast 261 300 7,500 -968 Descending FlightAware ADS-B
Sat 02:05:06 AM 51.5958 -0.1413 121° Southeast 255 293 7,200 -938 Descending FlightAware ADS-B
Sat 02:05:22 AM 51.5873 -0.1171 120° Southeast 241 277 7,000 -774 Descending FlightAware ADS-B
Sat 02:05:37 AM 51.5789 -0.0935 120° Southeast 229 264 6,800 -774 Descending FlightAware ADS-B
Sat 02:05:53 AM 51.5712 -0.0712 119° Southeast 219 252 6,600 -774 Descending FlightAware ADS-B
Sat 02:06:08 AM 51.5638 -0.0498 119° Southeast 214 246 6,400 -774 Descending FlightAware ADS-B
Sat 02:06:24 AM 51.5560 -0.0272 119° Southeast 212 244 6,200 -857 Descending FlightAware ADS-B
Sat 02:06:29 AM 51.5539 -0.0210 118° Southeast 211 243 6,100 -750 Descending FlightAware ADS-B
Sat 02:06:40 AM 51.5472 -0.0084 130° Southeast 200 230 6,000 -706 Descending FlightAware ADS-B
Sat 02:06:46 AM 51.5425 -0.0042 151° Southeast 190 219 5,900 -462 Descending FlightAware ADS-B
Sat 02:06:53 AM 51.5368 -0.0014 163° South 184 212 5,900 -500 Level FlightAware ADS-B
Sat 02:07:10 AM 51.5226 0.0026 170° South 185 213 5,700 -667 Descending FlightAware ADS-B
Sat 02:07:20 AM 51.5141 0.0037 175° South 180 207 5,600 -667 Descending FlightAware ADS-B
Sat 02:07:28 AM 51.5082 0.0008 197° South 169 194 5,500 -500 Descending FlightAware ADS-B
Sat 02:07:32 AM 51.5054 -0.0023 214° Southwest 165 190 5,500  Level FlightAware ADS-B
Sat 02:07:36 AM 51.5035 -0.0055 226° Southwest 161 185 5,500 -316 Level FlightAware ADS-B
Sat 02:07:51 AM 51.4972 -0.0207 236° Southwest 160 184 5,400 -529 Descending FlightAware ADS-B
Sat 02:08:10 AM 51.4898 -0.0390 237° Southwest 159 183 5,200 -529 Descending FlightAware ADS-B
Sat 02:08:25 AM 51.4836 -0.0542 237° Southwest 157 181 5,100 -462 Descending FlightAware ADS-B
Sat 02:08:36 AM 51.4796 -0.0640 237° Southwest 157 181 5,000 -857 Descending FlightAware ADS-B
Sat 02:08:39 AM 51.4783 -0.0676 240° Southwest 159 183 4,900 -1,500 Descending FlightAware ADS-B
Sat 02:08:44 AM 51.4771 -0.0727 249° West 157 181 4,800 -923 Descending FlightAware ADS-B
Sat 02:08:52 AM 51.4759 -0.0816 258° West 159 183 4,700 -923 Descending FlightAware ADS-B
Sat 02:08:57 AM 51.4756 -0.0877 265° West 160 184 4,600 -750 Descending FlightAware ADS-B
Sat 02:09:08 AM 51.4759 -0.1006 272° West 163 188 4,500 -783 Descending FlightAware ADS-B
Sat 02:09:20 AM 51.4763 -0.1153 273° West 167 192 4,300 -857 Descending FlightAware ADS-B
Sat 02:09:36 AM 51.4763 -0.1350 270° West 165 190 4,100 -938 Descending FlightAware ADS-B
Sat 02:09:52 AM 51.4764 -0.1544 270° West 159 183 3,800 -923 Descending FlightAware ADS-B
Sat 02:10:15 AM 51.4768 -0.1803 271° West 152 175 3,500 -720 Descending FlightAware ADS-B
Sat 02:10:42 AM 51.4770 -0.2093 271° West 136 157 3,200 -735 Descending FlightAware ADS-B
Sat 02:11:04 AM 51.4773 -0.2310 271° West 136 157 2,900 -906 Descending FlightAware ADS-B
Sat 02:11:35 AM 51.4781 -0.2532 271° West 170 196 2,400  Descending FlightAware UK
Sat 02:12:16 AM 51.4770 -0.2310 271° West 139 160 2,900 -706 Climbing FlightAware ADS-B (CYTZ)
Sat 02:12:43 AM 51.4780 -0.3360 271° West 146 168 1,600 -2,270 Descending FlightAware ADS-B
Sat 02:12:53 AM 51.4780 -0.3450 270° West 145 167 1,500 -808 Descending FlightAware ADS-B
Sat 02:13:35 AM 51.4779 -0.3789 270° West 158 182 900 -714 Descending FlightAware UK
Sat 02:13:35 AM 51.4790 -0.3910 270° West 149 171 1,000 -667 Climbing FlightAware ADS-B
Sat 02:13:53 AM 51.4790 -0.4120 270° West 151 174 700 -250 Descending FlightAware ADS-B
Sat 02:14:23 AM 51.4790 -0.4030 90° East 149 171 800  Climbing FlightAware ADS-B
Sat 02:14:33 AM 51.4790 -0.4180 270° West 154 177 700 -162 Descending FlightAware ADS-B
Sat 02:15:00 AM 51.4790 -0.4440 270° West 154 177 700  Level FlightAware ADS-B
Sat 02:17:00 AM 51.4667 -0.4500 90° East  Level FlightAware Approximate

Login

Don't have an account? Register now (free) for customized features, flight alerts, and more!